Wetterdaten: Mittwoch, 17.05.2023
Datum Zeit Temp. Aussen Temp. o. S. Temp +5cm Feuchte Auss Luftdruck Regen Sonnenschein Regendauer Solar Windben Empfang
17.05.2023 00:00 10,4 C 9,4 C 6,1 C 80 % 1023,9 hPa 0,0 l/m 0 min 0 min 0 W/m 12,9 km/h (3 Bft) 100,00 %
17.05.2023 00:02 10,4 C 9,4 C 6,1 C 81 % 1023,9 hPa 0,0 l/m 0 min 0 min 0 W/m 6,4 km/h (2 Bft) 100,00 %
17.05.2023 00:04 10,4 C 9,4 C 6,1 C 81 % 1023,9 hPa 0,0 l/m 0 min 0 min 0 W/m 6,4 km/h (2 Bft) 100,00 %
17.05.2023 00:07 10,3 C 9,4 C 5,6 C 81 % 1023,9 hPa 0,0 l/m 0 min 0 min 0 W/m 9,7 km/h (2 Bft) 100,00 %
17.05.2023 00:08 10,3 C 9,4 C 5,6 C 81 % 1023,9 hPa 0,0 l/m 0 min 0 min 0 W/m 9,7 km/h (2 Bft) 98,99 %
17.05.2023 00:12 10,3 C 8,9 C 5,6 C 81 % 1023,9 hPa 0,0 l/m 0 min 0 min 0 W/m 6,4 km/h (2 Bft) 100,00 %
17.05.2023 00:14 10,2 C 8,9 C 5,6 C 82 % 1024,0 hPa 0,0 l/m 0 min 0 min 0 W/m 6,4 km/h (2 Bft) 95,74 %
17.05.2023 00:16 10,2 C 8,9 C 5,6 C 82 % 1024,0 hPa 0,0 l/m 0 min 0 min 0 W/m 6,4 km/h (2 Bft) 95,74 %
17.05.2023 00:18 10,2 C 8,9 C 5,6 C 82 % 1024,0 hPa 0,0 l/m 0 min 0 min 0 W/m 3,2 km/h (1 Bft) 97,92 %
17.05.2023 00:20 10,2 C 8,9 C 5,6 C 82 % 1024,1 hPa 0,0 l/m 0 min 0 min 0 W/m 3,2 km/h (1 Bft) 95,65 %
17.05.2023 00:25 10,1 C 8,9 C 5,6 C 82 % 1024,0 hPa 0,0 l/m 0 min 0 min 0 W/m 3,2 km/h (1 Bft) 100,00 %
17.05.2023 00:26 10,1 C 8,9 C 5,6 C 82 % 1024,0 hPa 0,0 l/m 0 min 0 min 0 W/m 0,0 km/h (0 Bft) 91,30 %
17.05.2023 00:28 10,0 C 8,9 C 5,6 C 82 % 1024,0 hPa 0,0 l/m 0 min 0 min 0 W/m 3,2 km/h (1 Bft) 97,87 %
17.05.2023 00:30 10,0 C 8,3 C 5,6 C 83 % 1024,0 hPa 0,0 l/m 0 min 0 min 0 W/m 6,4 km/h (2 Bft) 97,87 %
17.05.2023 00:32 9,9 C 8,3 C 5,6 C 83 % 1024,0 hPa 0,0 l/m 0 min 0 min 0 W/m 3,2 km/h (1 Bft) 95,65 %
17.05.2023 00:34 9,9 C 8,3 C 5,6 C 83 % 1024,1 hPa 0,0 l/m 0 min 0 min 0 W/m 0,0 km/h (0 Bft) 95,74 %
17.05.2023 00:36 9,9 C 8,3 C 5,0 C 83 % 1024,1 hPa 0,0 l/m 0 min 0 min 0 W/m 0,0 km/h (0 Bft) 93,62 %
17.05.2023 00:38 9,8 C 8,3 C 5,0 C 83 % 1024,0 hPa 0,0 l/m 0 min 0 min 0 W/m 0,0 km/h (0 Bft) 95,92 %
17.05.2023 00:40 9,8 C 8,3 C 5,0 C 83 % 1024,0 hPa 0,0 l/m 0 min 0 min 0 W/m 3,2 km/h (1 Bft) 95,74 %
17.05.2023 00:42 9,8 C 8,3 C 5,0 C 83 % 1024,0 hPa 0,0 l/m 0 min 0 min 0 W/m 6,4 km/h (2 Bft) 93,62 %
17.05.2023 00:44 9,7 C 8,3 C 5,0 C 83 % 1024,0 hPa 0,0 l/m 0 min 0 min 0 W/m 6,4 km/h (2 Bft) 95,65 %
17.05.2023 00:46 9,7 C 8,3 C 5,0 C 83 % 1024,1 hPa 0,0 l/m 0 min 0 min 0 W/m 6,4 km/h (2 Bft) 95,74 %
17.05.2023 00:48 9,6 C 8,3 C 5,0 C 83 % 1024,0 hPa 0,0 l/m 0 min 0 min 0 W/m 6,4 km/h (2 Bft) 95,92 %
17.05.2023 00:50 9,6 C 8,3 C 5,0 C 84 % 1024,1 hPa 0,0 l/m 0 min 0 min 0 W/m 12,9 km/h (3 Bft) 95,65 %
17.05.2023 00:52 9,6 C 8,3 C 5,0 C 84 % 1024,1 hPa 0,0 l/m 0 min 0 min 0 W/m 12,9 km/h (3 Bft) 94,59 %
17.05.2023 00:54 9,5 C 8,3 C 5,0 C 84 % 1024,1 hPa 0,0 l/m 0 min 0 min 0 W/m 6,4 km/h (2 Bft) 96,43 %
17.05.2023 00:56 9,4 C 8,3 C 5,0 C 84 % 1024,1 hPa 0,0 l/m 0 min 0 min 0 W/m 9,7 km/h (2 Bft) 95,74 %
17.05.2023 00:58 9,4 C 8,3 C 5,0 C 84 % 1024,1 hPa 0,0 l/m 0 min 0 min 0 W/m 3,2 km/h (1 Bft) 95,92 %
17.05.2023 01:00 9,4 C 8,3 C 5,0 C 84 % 1024,2 hPa 0,0 l/m 0 min 0 min 0 W/m 12,9 km/h (3 Bft) 97,87 %
17.05.2023 01:02 9,3 C 8,3 C 5,0 C 84 % 1024,2 hPa 0,0 l/m 0 min 0 min 0 W/m 9,7 km/h (2 Bft) 95,65 %
17.05.2023 01:04 9,3 C 8,3 C 5,0 C 84 % 1024,2 hPa 0,0 l/m 0 min 0 min 0 W/m 6,4 km/h (2 Bft) 97,37 %
17.05.2023 01:06 9,3 C 8,3 C 5,0 C 84 % 1024,2 hPa 0,0 l/m 0 min 0 min 0 W/m 9,7 km/h (2 Bft) 98,28 %
17.05.2023 01:08 9,3 C 8,3 C 5,0 C 84 % 1024,1 hPa 0,0 l/m 0 min 0 min 0 W/m 3,2 km/h (1 Bft) 97,67 %
17.05.2023 01:10 9,2 C 8,3 C 5,0 C 84 % 1024,2 hPa 0,0 l/m 0 min 0 min 0 W/m 6,4 km/h (2 Bft) 97,83 %
17.05.2023 01:12 9,2 C 8,3 C 5,0 C 84 % 1024,2 hPa 0,0 l/m 0 min 0 min 0 W/m 3,2 km/h (1 Bft) 97,87 %
17.05.2023 01:14 9,2 C 7,8 C 5,0 C 84 % 1024,2 hPa 0,0 l/m 0 min 0 min 0 W/m 3,2 km/h (1 Bft) 95,74 %
17.05.2023 01:16 9,2 C 7,8 C 5,0 C 84 % 1024,2 hPa 0,0 l/m 0 min 0 min 0 W/m 6,4 km/h (2 Bft) 93,62 %
17.05.2023 01:18 9,1 C 7,8 C 4,4 C 84 % 1024,2 hPa 0,0 l/m 0 min 0 min 0 W/m 9,7 km/h (2 Bft) 100,00 %
17.05.2023 01:20 9,1 C 7,8 C 4,4 C 84 % 1024,2 hPa 0,0 l/m 0 min 0 min 0 W/m 3,2 km/h (1 Bft) 97,87 %
17.05.2023 01:22 9,1 C 7,8 C 4,4 C 85 % 1024,3 hPa 0,0 l/m 0 min 0 min 0 W/m 3,2 km/h (1 Bft) 97,87 %
17.05.2023 01:24 9,0 C 7,8 C 4,4 C 85 % 1024,2 hPa 0,0 l/m 0 min 0 min 0 W/m 3,2 km/h (1 Bft) 97,83 %
17.05.2023 01:26 9,0 C 7,8 C 4,4 C 85 % 1024,3 hPa 0,0 l/m 0 min 0 min 0 W/m 6,4 km/h (2 Bft) 97,87 %
17.05.2023 01:28 8,9 C 7,8 C 4,4 C 85 % 1024,3 hPa 0,0 l/m 0 min 0 min 0 W/m 6,4 km/h (2 Bft) 97,87 %
17.05.2023 01:30 8,9 C 7,8 C 4,4 C 85 % 1024,3 hPa 0,0 l/m 0 min 0 min 0 W/m 6,4 km/h (2 Bft) 100,00 %
17.05.2023 01:32 8,9 C 7,8 C 4,4 C 85 % 1024,2 hPa 0,0 l/m 0 min 0 min 0 W/m 6,4 km/h (2 Bft) 97,87 %
17.05.2023 01:34 8,8 C 7,8 C 4,4 C 85 % 1024,2 hPa 0,0 l/m 0 min 0 min 0 W/m 6,4 km/h (2 Bft) 95,74 %
17.05.2023 01:36 8,8 C 7,8 C 4,4 C 85 % 1024,3 hPa 0,0 l/m 0 min 0 min 0 W/m 3,2 km/h (1 Bft) 100,00 %
17.05.2023 01:38 8,8 C 7,8 C 4,4 C 85 % 1024,3 hPa 0,0 l/m 0 min 0 min 0 W/m 3,2 km/h (1 Bft) 95,74 %
17.05.2023 01:40 8,8 C 7,8 C 4,4 C 85 % 1024,3 hPa 0,0 l/m 0 min 0 min 0 W/m 6,4 km/h (2 Bft) 100,00 %
17.05.2023 01:42 8,7 C 7,8 C 4,4 C 85 % 1024,3 hPa 0,0 l/m 0 min 0 min 0 W/m 3,2 km/h (1 Bft) 97,87 %
17.05.2023 01:44 8,7 C 7,8 C 4,4 C 85 % 1024,3 hPa 0,0 l/m 0 min 0 min 0 W/m 3,2 km/h (1 Bft) 95,74 %
17.05.2023 01:46 8,7 C 7,8 C 4,4 C 86 % 1024,3 hPa 0,0 l/m 0 min 0 min 0 W/m 3,2 km/h (1 Bft) 95,74 %
17.05.2023 01:48 8,7 C 7,8 C 4,4 C 86 % 1024,4 hPa 0,0 l/m 0 min 0 min 0 W/m 6,4 km/h (2 Bft) 97,83 %
17.05.2023 01:50 8,6 C 7,2 C 4,4 C 86 % 1024,4 hPa 0,0 l/m 0 min 0 min 0 W/m 6,4 km/h (2 Bft) 97,87 %
17.05.2023 01:52 8,6 C 7,2 C 4,4 C 86 % 1024,4 hPa 0,0 l/m 0 min 0 min 0 W/m 6,4 km/h (2 Bft) 95,74 %
17.05.2023 01:54 8,6 C 7,2 C 4,4 C 86 % 1024,4 hPa 0,0 l/m 0 min 0 min 0 W/m 3,2 km/h (1 Bft) 95,74 %
17.05.2023 01:56 8,6 C 7,2 C 4,4 C 86 % 1024,4 hPa 0,0 l/m 0 min 0 min 0 W/m 3,2 km/h (1 Bft) 93,62 %
17.05.2023 01:58 8,5 C 7,2 C 4,4 C 86 % 1024,4 hPa 0,0 l/m 0 min 0 min 0 W/m 3,2 km/h (1 Bft) 97,87 %
17.05.2023 02:00 8,5 C 7,2 C 4,4 C 86 % 1024,4 hPa 0,0 l/m 0 min 0 min 0 W/m 0,0 km/h (0 Bft) 97,83 %
17.05.2023 02:02 8,4 C 7,2 C 4,4 C 86 % 1024,4 hPa 0,0 l/m 0 min 0 min 0 W/m 0,0 km/h (0 Bft) 97,87 %
17.05.2023 02:04 8,4 C 7,2 C 4,4 C 86 % 1024,4 hPa 0,0 l/m 0 min 0 min 0 W/m 0,0 km/h (0 Bft) 95,74 %
17.05.2023 02:06 8,4 C 7,2 C 4,4 C 86 % 1024,4 hPa 0,0 l/m 0 min 0 min 0 W/m 0,0 km/h (0 Bft) 93,75 %
17.05.2023 02:08 8,4 C 7,2 C 3,9 C 86 % 1024,5 hPa 0,0 l/m 0 min 0 min 0 W/m 3,2 km/h (1 Bft) 95,74 %
17.05.2023 02:10 8,4 C 7,2 C 3,9 C 86 % 1024,5 hPa 0,0 l/m 0 min 0 min 0 W/m 0,0 km/h (0 Bft) 94,29 %
17.05.2023 02:12 8,4 C 7,2 C 3,9 C 86 % 1024,5 hPa 0,0 l/m 0 min 0 min 0 W/m 0,0 km/h (0 Bft) 95,74 %
17.05.2023 02:14 8,4 C 7,2 C 3,9 C 86 % 1024,5 hPa 0,0 l/m 0 min 0 min 0 W/m 0,0 km/h (0 Bft) 95,83 %
17.05.2023 02:16 8,3 C 7,2 C 3,9 C 86 % 1024,5 hPa 0,0 l/m 0 min 0 min 0 W/m 0,0 km/h (0 Bft) 95,74 %
17.05.2023 02:18 8,3 C 7,2 C 3,9 C 87 % 1024,5 hPa 0,0 l/m 0 min 0 min 0 W/m 0,0 km/h (0 Bft) 97,87 %
17.05.2023 02:20 8,3 C 7,2 C 3,9 C 87 % 1024,6 hPa 0,0 l/m 0 min 0 min 0 W/m 3,2 km/h (1 Bft) 95,74 %
17.05.2023 02:22 8,3 C 7,2 C 3,9 C 87 % 1024,6 hPa 0,0 l/m 0 min 0 min 0 W/m 3,2 km/h (1 Bft) 97,87 %
17.05.2023 02:24 8,2 C 7,2 C 3,9 C 87 % 1024,6 hPa 0,0 l/m 0 min 0 min 0 W/m 3,2 km/h (1 Bft) 97,92 %
17.05.2023 02:26 8,2 C 7,2 C 3,9 C 87 % 1024,6 hPa 0,0 l/m 0 min 0 min 0 W/m 3,2 km/h (1 Bft) 97,87 %
17.05.2023 02:28 8,2 C 7,2 C 3,9 C 87 % 1024,5 hPa 0,0 l/m 0 min 0 min 0 W/m 0,0 km/h (0 Bft) 97,83 %
17.05.2023 02:30 8,2 C 7,2 C 3,9 C 87 % 1024,5 hPa 0,0 l/m 0 min 0 min 0 W/m 0,0 km/h (0 Bft) 100,00 %
17.05.2023 02:32 8,2 C 7,2 C 3,9 C 87 % 1024,5 hPa 0,0 l/m 0 min 0 min 0 W/m 3,2 km/h (1 Bft) 97,87 %
17.05.2023 02:34 8,2 C 7,2 C 3,9 C 87 % 1024,4 hPa 0,0 l/m 0 min 0 min 0 W/m 3,2 km/h (1 Bft) 100,00 %
17.05.2023 02:36 8,2 C 7,2 C 3,9 C 87 % 1024,5 hPa 0,0 l/m 0 min 0 min 0 W/m 0,0 km/h (0 Bft) 100,00 %
17.05.2023 02:38 8,1 C 7,2 C 3,9 C 87 % 1024,5 hPa 0,0 l/m 0 min 0 min 0 W/m 0,0 km/h (0 Bft) 100,00 %
17.05.2023 02:40 8,1 C 6,7 C 3,9 C 88 % 1024,5 hPa 0,0 l/m 0 min 0 min 0 W/m 0,0 km/h (0 Bft) 100,00 %
17.05.2023 02:42 8,1 C 6,7 C 3,9 C 88 % 1024,6 hPa 0,0 l/m 0 min 0 min 0 W/m 0,0 km/h (0 Bft) 100,00 %
17.05.2023 02:44 8,1 C 6,7 C 3,9 C 88 % 1024,5 hPa 0,0 l/m 0 min 0 min 0 W/m 3,2 km/h (1 Bft) 97,87 %
17.05.2023 02:46 8,1 C 6,7 C 3,9 C 88 % 1024,5 hPa 0,0 l/m 0 min 0 min 0 W/m 0,0 km/h (0 Bft) 100,00 %
17.05.2023 02:48 8,0 C 6,7 C 3,9 C 88 % 1024,6 hPa 0,0 l/m 0 min 0 min 0 W/m 0,0 km/h (0 Bft) 100,00 %
17.05.2023 02:50 8,0 C 6,7 C 3,9 C 88 % 1024,4 hPa 0,0 l/m 0 min 0 min 0 W/m 0,0 km/h (0 Bft) 100,00 %
17.05.2023 02:52 7,9 C 6,7 C 3,9 C 88 % 1024,4 hPa 0,0 l/m 0 min 0 min 0 W/m 0,0 km/h (0 Bft) 97,87 %
17.05.2023 02:54 7,9 C 6,7 C 3,3 C 88 % 1024,4 hPa 0,0 l/m 0 min 0 min 0 W/m 0,0 km/h (0 Bft) 100,00 %
17.05.2023 02:56 7,9 C 6,7 C 3,3 C 88 % 1024,4 hPa 0,0 l/m 0 min 0 min 0 W/m 0,0 km/h (0 Bft) 100,00 %
17.05.2023 02:58 7,9 C 6,7 C 3,3 C 88 % 1024,5 hPa 0,0 l/m 0 min 0 min 0 W/m 0,0 km/h (0 Bft) 100,00 %
17.05.2023 03:00 7,9 C 6,7 C 3,3 C 88 % 1024,5 hPa 0,0 l/m 0 min 0 min 0 W/m 0,0 km/h (0 Bft) 100,00 %
17.05.2023 03:02 7,9 C 6,7 C 3,3 C 88 % 1024,5 hPa 0,0 l/m 0 min 0 min 0 W/m 0,0 km/h (0 Bft) 100,00 %
17.05.2023 03:04 7,9 C 6,7 C 3,3 C 89 % 1024,6 hPa 0,0 l/m 0 min 0 min 0 W/m 0,0 km/h (0 Bft) 97,87 %
17.05.2023 03:06 7,8 C 6,7 C 3,3 C 89 % 1024,6 hPa 0,0 l/m 0 min 0 min 0 W/m 0,0 km/h (0 Bft) 100,00 %
17.05.2023 03:08 7,8 C 6,7 C 3,3 C 89 % 1024,6 hPa 0,0 l/m 0 min 0 min 0 W/m 0,0 km/h (0 Bft) 100,00 %
17.05.2023 03:10 7,8 C 6,7 C 3,3 C 89 % 1024,6 hPa 0,0 l/m 0 min 0 min 0 W/m 3,2 km/h (1 Bft) 100,00 %
17.05.2023 03:12 7,8 C 6,7 C 3,3 C 89 % 1024,6 hPa 0,0 l/m 0 min 0 min 0 W/m 3,2 km/h (1 Bft) 100,00 %
17.05.2023 03:14 7,7 C 6,7 C 3,3 C 89 % 1024,7 hPa 0,0 l/m 0 min 0 min 0 W/m 3,2 km/h (1 Bft) 100,00 %
17.05.2023 03:16 7,7 C 6,1 C 3,3 C 89 % 1024,7 hPa 0,0 l/m 0 min 0 min 0 W/m 3,2 km/h (1 Bft) 100,00 %
17.05.2023 03:18 7,7 C 6,1 C 3,3 C 89 % 1024,6 hPa 0,0 l/m 0 min 0 min 0 W/m 3,2 km/h (1 Bft) 100,00 %
17.05.2023 03:20 7,6 C 6,1 C 3,3 C 89 % 1024,6 hPa 0,0 l/m 0 min 0 min 0 W/m 3,2 km/h (1 Bft) 100,00 %
17.05.2023 03:22 7,6 C 6,1 C 3,3 C 89 % 1024,6 hPa 0,0 l/m 0 min 0 min 0 W/m 3,2 km/h (1 Bft) 95,74 %
17.05.2023 03:24 7,6 C 6,1 C 3,3 C 89 % 1024,6 hPa 0,0 l/m 0 min 0 min 0 W/m 0,0 km/h (0 Bft) 100,00 %
17.05.2023 03:26 7,6 C 6,1 C 3,3 C 89 % 1024,6 hPa 0,0 l/m 0 min 0 min 0 W/m 0,0 km/h (0 Bft) 97,87 %
17.05.2023 03:28 7,6 C 6,1 C 3,3 C 89 % 1024,6 hPa 0,0 l/m 0 min 0 min 0 W/m 0,0 km/h (0 Bft) 97,87 %
17.05.2023 03:30 7,6 C 6,1 C 3,3 C 90 % 1024,6 hPa 0,0 l/m 0 min 0 min 0 W/m 0,0 km/h (0 Bft) 100,00 %
17.05.2023 03:32 7,6 C 6,1 C 3,3 C 90 % 1024,6 hPa 0,0 l/m 0 min 0 min 0 W/m 0,0 km/h (0 Bft) 100,00 %
17.05.2023 03:34 7,6 C 6,1 C 3,3 C 90 % 1024,6 hPa 0,0 l/m 0 min 0 min 0 W/m 0,0 km/h (0 Bft) 100,00 %
17.05.2023 03:36 7,5 C 6,1 C 3,3 C 90 % 1024,6 hPa 0,0 l/m 0 min 0 min 0 W/m 0,0 km/h (0 Bft) 95,74 %
17.05.2023 03:38 7,5 C 6,1 C 3,3 C 90 % 1024,6 hPa 0,0 l/m 0 min 0 min 0 W/m 3,2 km/h (1 Bft) 95,74 %
17.05.2023 03:40 7,5 C 6,1 C 3,3 C 90 % 1024,6 hPa 0,0 l/m 0 min 0 min 0 W/m 0,0 km/h (0 Bft) 97,87 %
17.05.2023 03:42 7,5 C 6,1 C 3,3 C 90 % 1024,6 hPa 0,0 l/m 0 min 0 min 0 W/m 0,0 km/h (0 Bft) 97,87 %
17.05.2023 03:44 7,5 C 6,1 C 3,3 C 90 % 1024,6 hPa 0,0 l/m 0 min 0 min 0 W/m 0,0 km/h (0 Bft) 97,87 %
17.05.2023 03:46 7,5 C 6,1 C 3,3 C 91 % 1024,7 hPa 0,0 l/m 0 min 0 min 0 W/m 0,0 km/h (0 Bft) 93,62 %
17.05.2023 03:48 7,4 C 6,1 C 3,3 C 91 % 1024,7 hPa 0,0 l/m 0 min 0 min 0 W/m 0,0 km/h (0 Bft) 97,83 %
17.05.2023 03:50 7,4 C 6,1 C 3,3 C 91 % 1024,7 hPa 0,0 l/m 0 min 0 min 0 W/m 3,2 km/h (1 Bft) 95,74 %
17.05.2023 03:52 7,4 C 6,1 C 3,3 C 91 % 1024,7 hPa 0,0 l/m 0 min 0 min 0 W/m 0,0 km/h (0 Bft) 97,87 %
17.05.2023 03:54 7,4 C 6,1 C 3,3 C 91 % 1024,7 hPa 0,0 l/m 0 min 0 min 0 W/m 3,2 km/h (1 Bft) 93,75 %
17.05.2023 03:56 7,4 C 6,1 C 3,3 C 91 % 1024,8 hPa 0,0 l/m 0 min 0 min 0 W/m 0,0 km/h (0 Bft) 95,74 %
17.05.2023 03:58 7,4 C 6,1 C 3,3 C 91 % 1024,7 hPa 0,0 l/m 0 min 0 min 0 W/m 0,0 km/h (0 Bft) 95,74 %
17.05.2023 04:00 7,4 C 6,1 C 3,3 C 91 % 1024,7 hPa 0,0 l/m 0 min 0 min 0 W/m 0,0 km/h (0 Bft) 95,74 %
17.05.2023 04:02 7,4 C 6,1 C 3,3 C 91 % 1024,7 hPa 0,0 l/m 0 min 0 min 0 W/m 0,0 km/h (0 Bft) 97,50 %
17.05.2023 04:04 7,3 C 6,1 C 3,3 C 91 % 1024,7 hPa 0,0 l/m 0 min 0 min 0 W/m 0,0 km/h (0 Bft) 95,12 %
17.05.2023 04:06 7,3 C 6,1 C 3,3 C 91 % 1024,8 hPa 0,0 l/m 0 min 0 min 0 W/m 0,0 km/h (0 Bft) 97,87 %
17.05.2023 04:08 7,3 C 6,1 C 3,3 C 91 % 1024,8 hPa 0,0 l/m 0 min 0 min 0 W/m 0,0 km/h (0 Bft) 97,87 %
17.05.2023 04:10 7,3 C 6,1 C 3,3 C 91 % 1024,9 hPa 0,0 l/m 0 min 0 min 0 W/m 0,0 km/h (0 Bft) 97,56 %
17.05.2023 04:12 7,3 C 6,1 C 3,3 C 91 % 1024,8 hPa 0,0 l/m 0 min 0 min 0 W/m 0,0 km/h (0 Bft) 97,87 %
17.05.2023 04:14 7,3 C 6,1 C 3,3 C 91 % 1024,8 hPa 0,0 l/m 0 min 0 min 0 W/m 0,0 km/h (0 Bft) 95,83 %
17.05.2023 04:16 7,2 C 6,1 C 2,8 C 91 % 1024,9 hPa 0,0 l/m 0 min 0 min 0 W/m 0,0 km/h (0 Bft) 97,96 %
17.05.2023 04:18 7,2 C 6,1 C 2,8 C 92 % 1024,9 hPa 0,0 l/m 0 min 0 min 0 W/m 3,2 km/h (1 Bft) 97,87 %
17.05.2023 04:20 7,2 C 6,1 C 2,8 C 92 % 1024,8 hPa 0,0 l/m 0 min 0 min 0 W/m 0,0 km/h (0 Bft) 97,96 %
17.05.2023 04:22 7,2 C 6,1 C 2,8 C 92 % 1024,9 hPa 0,0 l/m 0 min 0 min 0 W/m 3,2 km/h (1 Bft) 93,62 %
17.05.2023 04:24 7,2 C 6,1 C 2,8 C 91 % 1024,8 hPa 0,0 l/m 0 min 0 min 0 W/m 0,0 km/h (0 Bft) 95,74 %
17.05.2023 04:26 7,1 C 6,1 C 2,8 C 92 % 1024,8 hPa 0,0 l/m 0 min 0 min 0 W/m 0,0 km/h (0 Bft) 95,74 %
17.05.2023 04:28 7,1 C 6,1 C 3,3 C 92 % 1024,8 hPa 0,0 l/m 0 min 0 min 0 W/m 3,2 km/h (1 Bft) 93,75 %
17.05.2023 04:30 7,1 C 6,1 C 3,3 C 92 % 1024,8 hPa 0,0 l/m 0 min 0 min 0 W/m 3,2 km/h (1 Bft) 97,92 %
17.05.2023 04:32 7,1 C 6,1 C 3,3 C 92 % 1024,8 hPa 0,0 l/m 0 min 0 min 0 W/m 3,2 km/h (1 Bft) 97,87 %
17.05.2023 04:34 7,1 C 6,1 C 3,3 C 92 % 1024,8 hPa 0,0 l/m 0 min 0 min 0 W/m 3,2 km/h (1 Bft) 97,87 %
17.05.2023 04:36 7,2 C 6,1 C 3,3 C 92 % 1024,8 hPa 0,0 l/m 0 min 0 min 0 W/m 3,2 km/h (1 Bft) 97,87 %
17.05.2023 04:38 7,1 C 6,1 C 3,3 C 92 % 1024,8 hPa 0,0 l/m 0 min 0 min 0 W/m 3,2 km/h (1 Bft) 97,87 %
17.05.2023 04:40 7,1 C 6,1 C 3,3 C 92 % 1024,8 hPa 0,0 l/m 0 min 0 min 0 W/m 3,2 km/h (1 Bft) 97,83 %
17.05.2023 04:42 7,1 C 6,1 C 2,8 C 93 % 1024,8 hPa 0,0 l/m 0 min 0 min 0 W/m 0,0 km/h (0 Bft) 97,87 %
17.05.2023 04:44 7,1 C 6,1 C 2,8 C 93 % 1024,9 hPa 0,0 l/m 0 min 0 min 0 W/m 0,0 km/h (0 Bft) 95,74 %
17.05.2023 04:46 7,1 C 6,1 C 3,3 C 93 % 1024,9 hPa 0,0 l/m 0 min 0 min 0 W/m 0,0 km/h (0 Bft) 95,74 %
17.05.2023 04:48 7,1 C 6,1 C 2,8 C 93 % 1024,9 hPa 0,0 l/m 0 min 0 min 0 W/m 0,0 km/h (0 Bft) 95,74 %
17.05.2023 04:50 7,1 C 6,1 C 2,8 C 93 % 1024,9 hPa 0,0 l/m 0 min 0 min 0 W/m 0,0 km/h (0 Bft) 97,87 %
17.05.2023 04:52 7,1 C 6,1 C 2,8 C 93 % 1025,0 hPa 0,0 l/m 0 min 0 min 0 W/m 3,2 km/h (1 Bft) 97,83 %
17.05.2023 04:54 7,1 C 6,1 C 2,8 C 93 % 1025,0 hPa 0,0 l/m 0 min 0 min 0 W/m 0,0 km/h (0 Bft) 97,87 %
17.05.2023 04:56 7,1 C 6,1 C 2,8 C 93 % 1025,0 hPa 0,0 l/m 0 min 0 min 0 W/m 0,0 km/h (0 Bft) 97,87 %
17.05.2023 04:58 7,1 C 6,1 C 2,8 C 93 % 1025,0 hPa 0,0 l/m 0 min 0 min 0 W/m 0,0 km/h (0 Bft) 95,74 %
17.05.2023 05:00 7,1 C 6,1 C 2,8 C 93 % 1024,9 hPa 0,0 l/m 0 min 0 min 0 W/m 0,0 km/h (0 Bft) 97,87 %
17.05.2023 05:02 7,1 C 6,1 C 2,8 C 93 % 1025,0 hPa 0,0 l/m 0 min 0 min 0 W/m 0,0 km/h (0 Bft) 93,62 %
17.05.2023 05:04 7,1 C 6,1 C 2,8 C 93 % 1025,0 hPa 0,0 l/m 0 min 0 min 0 W/m 0,0 km/h (0 Bft) 97,92 %
17.05.2023 05:06 7,1 C 6,1 C 2,8 C 93 % 1025,0 hPa 0,0 l/m 0 min 0 min 0 W/m 3,2 km/h (1 Bft) 97,87 %
17.05.2023 05:08 7,0 C 6,1 C 2,8 C 93 % 1025,0 hPa 0,0 l/m 0 min 0 min 0 W/m 3,2 km/h (1 Bft) 95,74 %
17.05.2023 05:10 7,1 C 6,1 C 2,8 C 93 % 1025,1 hPa 0,0 l/m 0 min 0 min 0 W/m 3,2 km/h (1 Bft) 65,96 %
17.05.2023 05:12 7,0 C 6,1 C 2,8 C 93 % 1025,1 hPa 0,0 l/m 0 min 0 min 0 W/m 3,2 km/h (1 Bft) 75,00 %
17.05.2023 05:14 7,0 C 6,1 C 2,8 C 93 % 1025,1 hPa 0,0 l/m 0 min 0 min 0 W/m 0,0 km/h (0 Bft) 95,74 %
17.05.2023 05:16 7,0 C 6,1 C 2,8 C 93 % 1025,0 hPa 0,0 l/m 0 min 0 min 0 W/m 3,2 km/h (1 Bft) 94,29 %
17.05.2023 05:18 6,9 C 6,1 C 2,8 C 93 % 1025,0 hPa 0,0 l/m 0 min 0 min 0 W/m 3,2 km/h (1 Bft) 94,83 %
17.05.2023 05:20 6,9 C 6,1 C 2,8 C 93 % 1025,1 hPa 0,0 l/m 0 min 0 min 0 W/m 3,2 km/h (1 Bft) 91,49 %
17.05.2023 05:22 6,9 C 6,1 C 2,8 C 93 % 1025,0 hPa 0,0 l/m 0 min 0 min 0 W/m 0,0 km/h (0 Bft) 95,74 %
17.05.2023 05:24 6,9 C 6,1 C 2,8 C 93 % 1025,1 hPa 0,0 l/m 0 min 0 min 0 W/m 3,2 km/h (1 Bft) 93,62 %
17.05.2023 05:26 6,9 C 6,1 C 2,8 C 93 % 1025,1 hPa 0,0 l/m 0 min 0 min 0 W/m 0,0 km/h (0 Bft) 95,74 %
17.05.2023 05:28 6,9 C 6,1 C 2,8 C 94 % 1025,1 hPa 0,0 l/m 0 min 0 min 0 W/m 0,0 km/h (0 Bft) 95,74 %
17.05.2023 05:30 6,9 C 6,1 C 2,8 C 94 % 1025,2 hPa 0,0 l/m 0 min 0 min 0 W/m 0,0 km/h (0 Bft) 97,83 %
17.05.2023 05:32 6,9 C 6,1 C 2,8 C 94 % 1025,2 hPa 0,0 l/m 0 min 0 min 0 W/m 0,0 km/h (0 Bft) 97,22 %
17.05.2023 05:34 6,9 C 6,1 C 2,8 C 93 % 1025,2 hPa 0,0 l/m 0 min 0 min 0 W/m 0,0 km/h (0 Bft) 100,00 %
17.05.2023 05:36 6,9 C 6,1 C 2,8 C 94 % 1025,2 hPa 0,0 l/m 0 min 0 min 0 W/m 0,0 km/h (0 Bft) 97,87 %
17.05.2023 05:38 6,9 C 6,1 C 2,8 C 94 % 1025,2 hPa 0,0 l/m 0 min 0 min 0 W/m 3,2 km/h (1 Bft) 100,00 %
17.05.2023 05:40 6,9 C 6,1 C 2,8 C 94 % 1025,2 hPa 0,0 l/m 0 min 0 min 0 W/m 0,0 km/h (0 Bft) 97,87 %
17.05.2023 05:42 6,9 C 6,1 C 2,8 C 94 % 1025,2 hPa 0,0 l/m 0 min 0 min 0 W/m 3,2 km/h (1 Bft) 100,00 %
17.05.2023 05:44 6,9 C 6,1 C 2,8 C 94 % 1025,3 hPa 0,0 l/m 0 min 0 min 0 W/m 0,0 km/h (0 Bft) 97,22 %
17.05.2023 05:46 6,9 C 6,1 C 2,8 C 94 % 1025,4 hPa 0,0 l/m 0 min 0 min 0 W/m 3,2 km/h (1 Bft) 100,00 %
17.05.2023 05:48 6,9 C 6,1 C 3,3 C 94 % 1025,4 hPa 0,0 l/m 0 min 0 min 2 W/m 3,2 km/h (1 Bft) 97,87 %
17.05.2023 05:50 7,0 C 6,1 C 3,3 C 94 % 1025,4 hPa 0,0 l/m 0 min 0 min 5 W/m 3,2 km/h (1 Bft) 100,00 %
17.05.2023 05:52 7,0 C 6,1 C 3,3 C 94 % 1025,4 hPa 0,0 l/m 0 min 0 min 5 W/m 3,2 km/h (1 Bft) 97,87 %
17.05.2023 05:54 7,0 C 6,1 C 3,3 C 94 % 1025,4 hPa 0,0 l/m 0 min 0 min 5 W/m 3,2 km/h (1 Bft) 97,87 %
17.05.2023 05:56 7,1 C 6,7 C 3,3 C 94 % 1025,4 hPa 0,0 l/m 0 min 0 min 5 W/m 0,0 km/h (0 Bft) 97,87 %
17.05.2023 05:58 7,1 C 6,7 C 3,3 C 94 % 1025,3 hPa 0,0 l/m 0 min 0 min 5 W/m 3,2 km/h (1 Bft) 100,00 %
17.05.2023 06:00 7,1 C 6,7 C 3,3 C 94 % 1025,4 hPa 0,0 l/m 0 min 0 min 5 W/m 3,2 km/h (1 Bft) 100,00 %
17.05.2023 06:02 7,1 C 6,7 C 3,3 C 94 % 1025,4 hPa 0,0 l/m 0 min 0 min 5 W/m 0,0 km/h (0 Bft) 97,87 %
17.05.2023 06:04 7,2 C 6,7 C 3,3 C 95 % 1025,4 hPa 0,0 l/m 0 min 0 min 5 W/m 3,2 km/h (1 Bft) 97,87 %
17.05.2023 06:07 7,2 C 6,7 C 3,3 C 95 % 1025,4 hPa 0,0 l/m 0 min 0 min 7 W/m 3,2 km/h (1 Bft) 97,87 %
17.05.2023 06:08 7,2 C 6,7 C 3,9 C 95 % 1025,4 hPa 0,0 l/m 0 min 0 min 7 W/m 0,0 km/h (0 Bft) 97,92 %
17.05.2023 06:10 7,3 C 6,7 C 3,9 C 95 % 1025,4 hPa 0,0 l/m 0 min 0 min 10 W/m 3,2 km/h (1 Bft) 97,83 %
17.05.2023 06:12 7,3 C 6,7 C 3,9 C 95 % 1025,4 hPa 0,0 l/m 0 min 0 min 12 W/m 3,2 km/h (1 Bft) 97,87 %
17.05.2023 06:14 7,3 C 6,7 C 3,9 C 95 % 1025,4 hPa 0,0 l/m 0 min 0 min 13 W/m 3,2 km/h (1 Bft) 97,87 %
17.05.2023 06:16 7,4 C 6,7 C 3,9 C 95 % 1025,4 hPa 0,0 l/m 0 min 0 min 14 W/m 3,2 km/h (1 Bft) 97,87 %
17.05.2023 06:18 7,4 C 7,2 C 3,9 C 95 % 1025,5 hPa 0,0 l/m 0 min 0 min 15 W/m 6,4 km/h (2 Bft) 97,87 %
17.05.2023 06:20 7,4 C 7,2 C 3,9 C 95 % 1025,5 hPa 0,0 l/m 0 min 0 min 16 W/m 0,0 km/h (0 Bft) 33,33 %
17.05.2023 06:22 7,4 C 7,2 C 3,9 C 95 % 1025,5 hPa 0,0 l/m 0 min 0 min 17 W/m 0,0 km/h (0 Bft) 97,62 %
17.05.2023 06:24 7,5 C 7,2 C 3,9 C 95 % 1025,5 hPa 0,0 l/m 0 min 0 min 18 W/m 3,2 km/h (1 Bft) 97,83 %
17.05.2023 06:26 7,6 C 7,2 C 3,9 C 95 % 1025,5 hPa 0,0 l/m 0 min 0 min 19 W/m 6,4 km/h (2 Bft) 97,87 %
17.05.2023 06:28 7,6 C 7,2 C 3,9 C 95 % 1025,5 hPa 0,0 l/m 0 min 0 min 19 W/m 3,2 km/h (1 Bft) 95,74 %
17.05.2023 06:30 7,6 C 7,2 C 3,9 C 95 % 1025,5 hPa 0,0 l/m 0 min 0 min 19 W/m 6,4 km/h (2 Bft) 97,87 %
17.05.2023 06:32 7,6 C 7,2 C 4,4 C 95 % 1025,6 hPa 0,0 l/m 0 min 0 min 23 W/m 3,2 km/h (1 Bft) 97,87 %
17.05.2023 06:34 7,7 C 7,2 C 4,4 C 95 % 1025,6 hPa 0,0 l/m 0 min 0 min 25 W/m 6,4 km/h (2 Bft) 97,87 %
17.05.2023 06:36 7,7 C 7,2 C 4,4 C 95 % 1025,6 hPa 0,0 l/m 0 min 0 min 23 W/m 3,2 km/h (1 Bft) 97,83 %
17.05.2023 06:38 7,7 C 7,2 C 4,4 C 95 % 1025,7 hPa 0,0 l/m 0 min 0 min 24 W/m 3,2 km/h (1 Bft) 97,87 %
17.05.2023 06:40 7,8 C 7,2 C 4,4 C 95 % 1025,6 hPa 0,0 l/m 0 min 0 min 21 W/m 9,7 km/h (2 Bft) 100,00 %
17.05.2023 06:42 7,8 C 7,8 C 4,4 C 95 % 1025,7 hPa 0,0 l/m 0 min 0 min 22 W/m 3,2 km/h (1 Bft) 97,87 %
17.05.2023 06:44 7,8 C 7,8 C 4,4 C 95 % 1025,7 hPa 0,0 l/m 0 min 0 min 26 W/m 3,2 km/h (1 Bft) 93,33 %
17.05.2023 06:46 7,9 C 7,8 C 4,4 C 95 % 1025,7 hPa 0,0 l/m 0 min 0 min 29 W/m 3,2 km/h (1 Bft) 97,87 %
17.05.2023 06:48 7,9 C 7,8 C 4,4 C 95 % 1025,7 hPa 0,0 l/m 0 min 0 min 26 W/m 6,4 km/h (2 Bft) 91,30 %
17.05.2023 06:50 8,0 C 7,8 C 4,4 C 95 % 1025,8 hPa 0,0 l/m 0 min 0 min 33 W/m 6,4 km/h (2 Bft) 95,74 %
17.05.2023 06:52 8,0 C 7,8 C 4,4 C 95 % 1025,8 hPa 0,0 l/m 0 min 0 min 37 W/m 3,2 km/h (1 Bft) 97,87 %
17.05.2023 06:54 8,1 C 7,8 C 4,4 C 95 % 1025,8 hPa 0,0 l/m 0 min 0 min 34 W/m 3,2 km/h (1 Bft) 97,87 %
17.05.2023 06:56 8,1 C 7,8 C 4,4 C 96 % 1025,9 hPa 0,0 l/m 0 min 0 min 34 W/m 3,2 km/h (1 Bft) 95,74 %
17.05.2023 06:58 8,1 C 7,8 C 4,4 C 96 % 1025,9 hPa 0,0 l/m 0 min 0 min 42 W/m 3,2 km/h (1 Bft) 97,87 %
17.05.2023 07:00 8,1 C 7,8 C 4,4 C 96 % 1025,9 hPa 0,0 l/m 0 min 0 min 49 W/m 12,9 km/h (3 Bft) 97,87 %
17.05.2023 07:02 8,2 C 7,8 C 4,4 C 96 % 1025,9 hPa 0,0 l/m 0 min 0 min 58 W/m 6,4 km/h (2 Bft) 93,48 %
17.05.2023 07:04 8,2 C 7,8 C 4,4 C 96 % 1025,9 hPa 0,0 l/m 0 min 0 min 62 W/m 6,4 km/h (2 Bft) 97,92 %
17.05.2023 07:06 8,2 C 7,8 C 4,4 C 96 % 1026,0 hPa 0,0 l/m 0 min 0 min 61 W/m 6,4 km/h (2 Bft) 100,00 %
17.05.2023 07:08 8,2 C 7,8 C 4,4 C 96 % 1026,0 hPa 0,0 l/m 0 min 0 min 60 W/m 9,7 km/h (2 Bft) 97,14 %
17.05.2023 07:10 8,2 C 7,8 C 4,4 C 96 % 1026,1 hPa 0,0 l/m 0 min 0 min 52 W/m 9,7 km/h (2 Bft) 97,87 %
17.05.2023 07:12 8,2 C 7,8 C 4,4 C 96 % 1026,1 hPa 0,0 l/m 0 min 0 min 49 W/m 9,7 km/h (2 Bft) 100,00 %
17.05.2023 07:14 8,2 C 7,8 C 4,4 C 96 % 1026,1 hPa 0,0 l/m 0 min 0 min 44 W/m 9,7 km/h (2 Bft) 97,83 %
17.05.2023 07:16 8,2 C 7,8 C 4,4 C 96 % 1026,0 hPa 0,0 l/m 0 min 0 min 44 W/m 9,7 km/h (2 Bft) 100,00 %
17.05.2023 07:18 8,3 C 8,3 C 4,4 C 95 % 1026,1 hPa 0,0 l/m 0 min 0 min 46 W/m 3,2 km/h (1 Bft) 100,00 %
17.05.2023 07:20 8,3 C 8,3 C 4,4 C 96 % 1026,2 hPa 0,0 l/m 0 min 0 min 44 W/m 6,4 km/h (2 Bft) 100,00 %
17.05.2023 07:22 8,3 C 8,3 C 5,0 C 96 % 1026,2 hPa 0,0 l/m 0 min 0 min 47 W/m 3,2 km/h (1 Bft) 100,00 %
17.05.2023 07:24 8,3 C 8,3 C 4,4 C 96 % 1026,2 hPa 0,0 l/m 0 min 0 min 49 W/m 9,7 km/h (2 Bft) 97,87 %
17.05.2023 07:26 8,3 C 8,3 C 4,4 C 95 % 1026,2 hPa 0,0 l/m 0 min 0 min 49 W/m 6,4 km/h (2 Bft) 100,00 %
17.05.2023 07:28 8,4 C 8,3 C 4,4 C 95 % 1026,2 hPa 0,0 l/m 0 min 0 min 54 W/m 9,7 km/h (2 Bft) 100,00 %
17.05.2023 07:30 8,4 C 8,3 C 5,0 C 96 % 1026,3 hPa 0,0 l/m 0 min 0 min 58 W/m 16,1 km/h (3 Bft) 100,00 %
17.05.2023 07:32 8,4 C 8,3 C 5,0 C 96 % 1026,3 hPa 0,0 l/m 0 min 0 min 52 W/m 12,9 km/h (3 Bft) 100,00 %
17.05.2023 07:34 8,4 C 8,3 C 5,0 C 95 % 1026,3 hPa 0,0 l/m 0 min 0 min 55 W/m 16,1 km/h (3 Bft) 100,00 %
17.05.2023 07:36 8,4 C 8,3 C 5,0 C 96 % 1026,3 hPa 0,0 l/m 0 min 0 min 54 W/m 9,7 km/h (2 Bft) 100,00 %
17.05.2023 07:38 8,5 C 8,3 C 5,0 C 96 % 1026,3 hPa 0,0 l/m 0 min 0 min 55 W/m 3,2 km/h (1 Bft) 100,00 %
17.05.2023 07:40 8,5 C 8,3 C 5,0 C 96 % 1026,3 hPa 0,0 l/m 0 min 0 min 55 W/m 3,2 km/h (1 Bft) 95,74 %
17.05.2023 07:42 8,6 C 8,3 C 5,0 C 96 % 1026,3 hPa 0,0 l/m 0 min 0 min 56 W/m 12,9 km/h (3 Bft) 100,00 %
17.05.2023 07:44 8,6 C 8,3 C 5,0 C 96 % 1026,3 hPa 0,0 l/m 0 min 0 min 57 W/m 12,9 km/h (3 Bft) 97,87 %
17.05.2023 07:46 8,6 C 8,3 C 5,0 C 96 % 1026,4 hPa 0,0 l/m 0 min 0 min 65 W/m 12,9 km/h (3 Bft) 100,00 %
17.05.2023 07:48 8,7 C 8,9 C 5,0 C 96 % 1026,4 hPa 0,0 l/m 0 min 0 min 83 W/m 9,7 km/h (2 Bft) 100,00 %
17.05.2023 07:50 8,7 C 8,9 C 5,0 C 96 % 1026,4 hPa 0,0 l/m 0 min 0 min 89 W/m 12,9 km/h (3 Bft) 100,00 %
17.05.2023 07:52 8,7 C 8,9 C 5,0 C 96 % 1026,4 hPa 0,0 l/m 0 min 0 min 79 W/m 6,4 km/h (2 Bft) 100,00 %
17.05.2023 07:54 8,7 C 8,9 C 5,6 C 95 % 1026,5 hPa 0,0 l/m 0 min 0 min 103 W/m 9,7 km/h (2 Bft) 97,87 %
17.05.2023 07:56 8,8 C 8,9 C 5,6 C 95 % 1026,5 hPa 0,0 l/m 0 min 0 min 87 W/m 6,4 km/h (2 Bft) 95,74 %
17.05.2023 07:58 8,8 C 8,9 C 5,6 C 96 % 1026,5 hPa 0,0 l/m 2 min 0 min 210 W/m 9,7 km/h (2 Bft) 95,74 %
17.05.2023 08:00 8,8 C 9,4 C 5,6 C 96 % 1026,5 hPa 0,0 l/m 2 min 0 min 222 W/m 12,9 km/h (3 Bft) 95,74 %
17.05.2023 08:02 8,8 C 9,4 C 5,6 C 96 % 1026,5 hPa 0,0 l/m 0 min 0 min 82 W/m 9,7 km/h (2 Bft) 97,87 %
17.05.2023 08:04 8,9 C 9,4 C 5,6 C 96 % 1026,5 hPa 0,0 l/m 0 min 0 min 82 W/m 6,4 km/h (2 Bft) 97,87 %
17.05.2023 08:06 8,9 C 9,4 C 5,6 C 95 % 1026,6 hPa 0,0 l/m 0 min 0 min 97 W/m 6,4 km/h (2 Bft) 98,31 %
17.05.2023 08:08 8,9 C 8,9 C 5,6 C 95 % 1026,6 hPa 0,0 l/m 0 min 0 min 113 W/m 6,4 km/h (2 Bft) 94,29 %
17.05.2023 08:10 8,9 C 9,4 C 5,6 C 95 % 1026,6 hPa 0,0 l/m 0 min 0 min 158 W/m 6,4 km/h (2 Bft) 97,87 %
17.05.2023 08:12 8,9 C 10,0 C 5,6 C 95 % 1026,7 hPa 0,0 l/m 2 min 0 min 271 W/m 9,7 km/h (2 Bft) 97,87 %
17.05.2023 08:14 9,0 C 11,1 C 5,6 C 95 % 1026,7 hPa 0,0 l/m 2 min 0 min 205 W/m 6,4 km/h (2 Bft) 95,74 %
17.05.2023 08:16 9,1 C 12,2 C 5,6 C 95 % 1026,7 hPa 0,0 l/m 2 min 0 min 298 W/m 6,4 km/h (2 Bft) 95,74 %
17.05.2023 08:18 9,1 C 12,8 C 5,6 C 95 % 1026,7 hPa 0,0 l/m 2 min 0 min 212 W/m 9,7 km/h (2 Bft) 97,87 %
17.05.2023 08:20 9,2 C 13,3 C 5,6 C 95 % 1026,7 hPa 0,0 l/m 2 min 0 min 300 W/m 12,9 km/h (3 Bft) 97,83 %
17.05.2023 08:22 9,3 C 12,8 C 6,1 C 95 % 1026,8 hPa 0,0 l/m 2 min 0 min 320 W/m 19,3 km/h (3 Bft) 97,92 %
17.05.2023 08:24 9,3 C 13,3 C 6,1 C 95 % 1026,7 hPa 0,0 l/m 2 min 0 min 325 W/m 9,7 km/h (2 Bft) 97,87 %
17.05.2023 08:26 9,4 C 13,9 C 6,1 C 95 % 1026,7 hPa 0,0 l/m 2 min 0 min 342 W/m 19,3 km/h (3 Bft) 97,87 %
17.05.2023 08:28 9,4 C 14,4 C 6,1 C 95 % 1026,7 hPa 0,0 l/m 2 min 0 min 347 W/m 12,9 km/h (3 Bft) 91,49 %
17.05.2023 08:30 9,5 C 15,0 C 6,1 C 95 % 1026,7 hPa 0,0 l/m 2 min 0 min 352 W/m 6,4 km/h (2 Bft) 97,83 %
17.05.2023 08:32 9,6 C 15,6 C 6,1 C 94 % 1026,7 hPa 0,0 l/m 2 min 0 min 358 W/m 9,7 km/h (2 Bft) 95,74 %
17.05.2023 08:34 9,7 C 16,1 C 6,1 C 94 % 1026,8 hPa 0,0 l/m 2 min 0 min 364 W/m 9,7 km/h (2 Bft) 97,87 %
17.05.2023 08:36 9,9 C 16,1 C 6,7 C 94 % 1026,7 hPa 0,0 l/m 2 min 0 min 369 W/m 3,2 km/h (1 Bft) 95,74 %
17.05.2023 08:38 10,0 C 15,6 C 6,7 C 94 % 1026,8 hPa 0,0 l/m 2 min 0 min 382 W/m 9,7 km/h (2 Bft) 95,74 %
17.05.2023 08:40 10,1 C 15,6 C 6,7 C 93 % 1026,8 hPa 0,0 l/m 2 min 0 min 382 W/m 12,9 km/h (3 Bft) 97,87 %
17.05.2023 08:42 10,2 C 16,1 C 6,7 C 92 % 1026,8 hPa 0,0 l/m 2 min 0 min 396 W/m 6,4 km/h (2 Bft) 97,83 %
17.05.2023 08:44 10,4 C 15,6 C 7,2 C 92 % 1026,7 hPa 0,0 l/m 2 min 0 min 405 W/m 9,7 km/h (2 Bft) 95,74 %
17.05.2023 08:46 10,5 C 16,7 C 7,2 C 91 % 1026,8 hPa 0,0 l/m 2 min 0 min 406 W/m 6,4 km/h (2 Bft) 95,74 %
17.05.2023 08:48 10,6 C 17,2 C 7,2 C 90 % 1026,8 hPa 0,0 l/m 2 min 0 min 419 W/m 16,1 km/h (3 Bft) 97,87 %
17.05.2023 08:50 10,7 C 17,2 C 7,2 C 88 % 1026,8 hPa 0,0 l/m 2 min 0 min 430 W/m 19,3 km/h (3 Bft) 95,74 %
17.05.2023 08:52 10,8 C 17,8 C 7,8 C 87 % 1026,8 hPa 0,0 l/m 2 min 0 min 440 W/m 12,9 km/h (3 Bft) 95,74 %
17.05.2023 08:54 11,1 C 17,8 C 7,8 C 84 % 1026,9 hPa 0,0 l/m 2 min 0 min 445 W/m 12,9 km/h (3 Bft) 97,83 %
17.05.2023 08:56 11,3 C 18,9 C 8,3 C 83 % 1026,9 hPa 0,0 l/m 2 min 0 min 442 W/m 9,7 km/h (2 Bft) 97,87 %
17.05.2023 08:58 11,5 C 18,9 C 8,9 C 82 % 1026,9 hPa 0,0 l/m 2 min 0 min 456 W/m 9,7 km/h (2 Bft) 97,87 %
17.05.2023 09:00 11,8 C 19,4 C 9,4 C 80 % 1026,8 hPa 0,0 l/m 2 min 0 min 458 W/m 6,4 km/h (2 Bft) 95,74 %
17.05.2023 09:02 12,0 C 18,9 C 9,4 C 78 % 1026,9 hPa 0,0 l/m 2 min 0 min 463 W/m 19,3 km/h (3 Bft) 97,87 %
17.05.2023 09:04 12,2 C 18,9 C 9,4 C 76 % 1026,9 hPa 0,0 l/m 2 min 0 min 474 W/m 16,1 km/h (3 Bft) 95,92 %
17.05.2023 09:06 12,3 C 18,3 C 9,4 C 75 % 1027,0 hPa 0,0 l/m 2 min 0 min 492 W/m 16,1 km/h (3 Bft) 97,83 %
17.05.2023 09:08 12,3 C 17,8 C 10,0 C 74 % 1027,0 hPa 0,0 l/m 2 min 0 min 501 W/m 9,7 km/h (2 Bft) 97,87 %
17.05.2023 09:10 12,3 C 18,3 C 10,0 C 74 % 1027,0 hPa 0,0 l/m 2 min 0 min 472 W/m 12,9 km/h (3 Bft) 95,74 %
17.05.2023 09:12 12,3 C 17,8 C 10,0 C 74 % 1026,9 hPa 0,0 l/m 2 min 0 min 509 W/m 12,9 km/h (3 Bft) 97,87 %
17.05.2023 09:14 12,3 C 17,2 C 10,0 C 73 % 1026,9 hPa 0,0 l/m 2 min 0 min 527 W/m 22,5 km/h (4 Bft) 100,00 %
17.05.2023 09:16 12,4 C 17,2 C 10,0 C 73 % 1027,1 hPa 0,0 l/m 2 min 0 min 553 W/m 19,3 km/h (3 Bft) 91,49 %
17.05.2023 09:18 12,5 C 17,8 C 10,6 C 73 % 1027,1 hPa 0,0 l/m 2 min 0 min 564 W/m 9,7 km/h (2 Bft) 97,87 %
17.05.2023 09:20 12,6 C 17,2 C 10,6 C 73 % 1027,1 hPa 0,0 l/m 2 min 0 min 546 W/m 12,9 km/h (3 Bft) 97,83 %
17.05.2023 09:22 12,8 C 17,8 C 10,6 C 72 % 1027,1 hPa 0,0 l/m 2 min 0 min 594 W/m 19,3 km/h (3 Bft) 100,00 %
17.05.2023 09:24 12,9 C 18,3 C 11,1 C 73 % 1027,1 hPa 0,0 l/m 2 min 0 min 609 W/m 12,9 km/h (3 Bft) 97,87 %
17.05.2023 09:26 12,9 C 17,8 C 11,1 C 71 % 1027,1 hPa 0,0 l/m 2 min 0 min 629 W/m 9,7 km/h (2 Bft) 100,00 %
17.05.2023 09:28 13,0 C 18,3 C 11,1 C 71 % 1027,0 hPa 0,0 l/m 2 min 0 min 638 W/m 22,5 km/h (4 Bft) 97,87 %
17.05.2023 09:30 13,1 C 18,3 C 11,1 C 70 % 1027,1 hPa 0,0 l/m 2 min 0 min 640 W/m 12,9 km/h (3 Bft) 100,00 %
17.05.2023 09:32 13,2 C 18,3 C 11,1 C 71 % 1027,1 hPa 0,0 l/m 2 min 0 min 642 W/m 6,4 km/h (2 Bft) 97,83 %
17.05.2023 09:34 13,3 C 18,9 C 11,7 C 71 % 1027,1 hPa 0,0 l/m 2 min 0 min 658 W/m 12,9 km/h (3 Bft) 100,00 %
17.05.2023 09:36 13,5 C 19,4 C 11,7 C 69 % 1027,2 hPa 0,0 l/m 2 min 0 min 729 W/m 12,9 km/h (3 Bft) 100,00 %
17.05.2023 09:38 13,4 C 17,8 C 11,1 C 67 % 1027,2 hPa 0,0 l/m 2 min 0 min 705 W/m 19,3 km/h (3 Bft) 97,87 %
17.05.2023 09:40 13,4 C 17,2 C 11,1 C 69 % 1027,2 hPa 0,0 l/m 2 min 0 min 677 W/m 19,3 km/h (3 Bft) 100,00 %
17.05.2023 09:42 13,4 C 17,2 C 11,1 C 68 % 1027,1 hPa 0,0 l/m 2 min 0 min 758 W/m 19,3 km/h (3 Bft) 100,00 %
17.05.2023 09:44 13,4 C 16,1 C 11,1 C 67 % 1027,2 hPa 0,0 l/m 2 min 0 min 304 W/m 16,1 km/h (3 Bft) 100,00 %
17.05.2023 09:46 13,3 C 16,1 C 11,1 C 67 % 1027,2 hPa 0,0 l/m 2 min 0 min 311 W/m 12,9 km/h (3 Bft) 97,83 %
17.05.2023 09:48 13,4 C 16,7 C 11,1 C 67 % 1027,2 hPa 0,0 l/m 2 min 0 min 546 W/m 22,5 km/h (4 Bft) 100,00 %
17.05.2023 09:50 13,4 C 17,2 C 11,7 C 67 % 1027,3 hPa 0,0 l/m 2 min 0 min 825 W/m 22,5 km/h (4 Bft) 100,00 %
17.05.2023 09:52 13,4 C 17,8 C 12,2 C 67 % 1027,2 hPa 0,0 l/m 2 min 0 min 823 W/m 25,7 km/h (4 Bft) 100,00 %
17.05.2023 09:54 13,4 C 17,2 C 12,2 C 66 % 1027,2 hPa 0,0 l/m 2 min 0 min 813 W/m 16,1 km/h (3 Bft) 97,87 %
17.05.2023 09:56 13,5 C 18,3 C 12,8 C 67 % 1027,2 hPa 0,0 l/m 2 min 0 min 806 W/m 16,1 km/h (3 Bft) 97,87 %
17.05.2023 09:58 13,6 C 18,3 C 12,2 C 66 % 1027,3 hPa 0,0 l/m 2 min 0 min 823 W/m 12,9 km/h (3 Bft) 97,83 %
17.05.2023 10:00 13,7 C 17,8 C 12,2 C 66 % 1027,4 hPa 0,0 l/m 2 min 0 min 823 W/m 16,1 km/h (3 Bft) 97,87 %
17.05.2023 10:02 13,7 C 18,3 C 12,8 C 66 % 1027,3 hPa 0,0 l/m 2 min 0 min 832 W/m 12,9 km/h (3 Bft) 100,00 %
17.05.2023 10:04 13,8 C 17,2 C 12,2 C 65 % 1027,3 hPa 0,0 l/m 2 min 0 min 671 W/m 19,3 km/h (3 Bft) 97,92 %
17.05.2023 10:06 13,8 C 17,8 C 12,8 C 65 % 1027,3 hPa 0,0 l/m 2 min 0 min 629 W/m 9,7 km/h (2 Bft) 97,87 %
17.05.2023 10:08 13,9 C 17,2 C 12,2 C 65 % 1027,3 hPa 0,0 l/m 2 min 0 min 633 W/m 9,7 km/h (2 Bft) 100,00 %
17.05.2023 10:10 13,9 C 17,2 C 11,1 C 65 % 1027,4 hPa 0,0 l/m 2 min 0 min 612 W/m 16,1 km/h (3 Bft) 100,00 %
17.05.2023 10:12 13,9 C 16,1 C 11,1 C 66 % 1027,4 hPa 0,0 l/m 2 min 0 min 398 W/m 12,9 km/h (3 Bft) 97,92 %
17.05.2023 10:14 13,8 C 15,6 C 11,1 C 66 % 1027,4 hPa 0,0 l/m 2 min 0 min 704 W/m 25,7 km/h (4 Bft) 100,00 %
17.05.2023 10:16 13,7 C 16,1 C 11,1 C 67 % 1027,4 hPa 0,0 l/m 2 min 0 min 873 W/m 12,9 km/h (3 Bft) 97,87 %
17.05.2023 10:18 13,8 C 16,1 C 11,7 C 67 % 1027,4 hPa 0,0 l/m 2 min 0 min 652 W/m 12,9 km/h (3 Bft) 97,87 %
17.05.2023 10:20 13,9 C 16,7 C 12,2 C 67 % 1027,3 hPa 0,0 l/m 2 min 0 min 656 W/m 9,7 km/h (2 Bft) 100,00 %
17.05.2023 10:22 14,0 C 17,2 C 12,2 C 66 % 1027,4 hPa 0,0 l/m 2 min 0 min 853 W/m 12,9 km/h (3 Bft) 100,00 %
17.05.2023 10:24 14,1 C 17,2 C 12,2 C 66 % 1027,4 hPa 0,0 l/m 2 min 0 min 804 W/m 19,3 km/h (3 Bft) 97,87 %
17.05.2023 10:26 14,1 C 16,7 C 12,2 C 65 % 1027,4 hPa 0,0 l/m 2 min 0 min 779 W/m 12,9 km/h (3 Bft) 100,00 %
17.05.2023 10:28 14,1 C 16,1 C 12,2 C 64 % 1027,4 hPa 0,0 l/m 2 min 0 min 773 W/m 6,4 km/h (2 Bft) 100,00 %
17.05.2023 10:30 14,1 C 15,6 C 12,2 C 65 % 1027,4 hPa 0,0 l/m 2 min 0 min 799 W/m 6,4 km/h (2 Bft) 100,00 %
17.05.2023 10:32 14,2 C 16,7 C 12,2 C 66 % 1027,4 hPa 0,0 l/m 2 min 0 min 856 W/m 3,2 km/h (1 Bft) 95,83 %
17.05.2023 10:34 14,2 C 16,1 C 11,1 C 65 % 1027,4 hPa 0,0 l/m 2 min 0 min 610 W/m 12,9 km/h (3 Bft) 93,62 %
17.05.2023 10:36 14,1 C 15,6 C 11,1 C 64 % 1027,4 hPa 0,0 l/m 2 min 0 min 590 W/m 12,9 km/h (3 Bft) 95,74 %
17.05.2023 10:38 14,1 C 15,6 C 11,1 C 64 % 1027,4 hPa 0,0 l/m 2 min 0 min 894 W/m 12,9 km/h (3 Bft) 93,62 %
17.05.2023 10:40 14,2 C 15,6 C 11,7 C 65 % 1027,4 hPa 0,0 l/m 2 min 0 min 884 W/m 16,1 km/h (3 Bft) 93,48 %
17.05.2023 10:42 14,3 C 16,1 C 11,7 C 65 % 1027,4 hPa 0,0 l/m 2 min 0 min 895 W/m 16,1 km/h (3 Bft) 93,62 %
17.05.2023 10:44 14,3 C 16,1 C 11,7 C 65 % 1027,4 hPa 0,0 l/m 2 min 0 min 927 W/m 19,3 km/h (3 Bft) 93,62 %
17.05.2023 10:46 14,3 C 16,1 C 11,1 C 64 % 1027,4 hPa 0,0 l/m 2 min 0 min 904 W/m 16,1 km/h (3 Bft) 93,62 %
17.05.2023 10:48 14,2 C 16,1 C 11,1 C 64 % 1027,4 hPa 0,0 l/m 2 min 0 min 406 W/m 9,7 km/h (2 Bft) 91,49 %
17.05.2023 10:50 14,2 C 16,1 C 11,1 C 65 % 1027,5 hPa 0,0 l/m 2 min 0 min 973 W/m 16,1 km/h (3 Bft) 93,62 %
17.05.2023 10:52 14,3 C 16,1 C 11,1 C 64 % 1027,5 hPa 0,0 l/m 2 min 0 min 962 W/m 19,3 km/h (3 Bft) 91,30 %
17.05.2023 10:54 14,3 C 15,6 C 11,1 C 64 % 1027,5 hPa 0,0 l/m 0 min 0 min 300 W/m 16,1 km/h (3 Bft) 93,62 %
17.05.2023 10:56 14,1 C 16,1 C 10,6 C 63 % 1027,5 hPa 0,0 l/m 2 min 0 min 471 W/m 22,5 km/h (4 Bft) 93,62 %
17.05.2023 10:58 13,9 C 16,1 C 10,6 C 62 % 1027,6 hPa 0,0 l/m 2 min 0 min 479 W/m 16,1 km/h (3 Bft) 93,62 %
17.05.2023 11:00 14,0 C 17,2 C 10,6 C 64 % 1027,6 hPa 0,0 l/m 2 min 0 min 878 W/m 12,9 km/h (3 Bft) 95,74 %
17.05.2023 11:02 14,1 C 17,8 C 11,1 C 65 % 1027,6 hPa 0,0 l/m 2 min 0 min 891 W/m 12,9 km/h (3 Bft) 93,62 %
17.05.2023 11:04 14,3 C 18,3 C 11,1 C 64 % 1027,6 hPa 0,0 l/m 2 min 0 min 883 W/m 19,3 km/h (3 Bft) 93,75 %
17.05.2023 11:06 14,3 C 17,8 C 11,1 C 63 % 1027,6 hPa 0,0 l/m 2 min 0 min 854 W/m 19,3 km/h (3 Bft) 93,22 %
17.05.2023 11:08 14,3 C 16,7 C 11,1 C 63 % 1027,6 hPa 0,0 l/m 2 min 0 min 631 W/m 16,1 km/h (3 Bft) 91,43 %
17.05.2023 11:10 14,3 C 15,6 C 10,6 C 63 % 1027,6 hPa 0,0 l/m 0 min 0 min 300 W/m 12,9 km/h (3 Bft) 93,62 %
17.05.2023 11:12 14,2 C 15,0 C 10,6 C 63 % 1027,6 hPa 0,0 l/m 0 min 0 min 278 W/m 9,7 km/h (2 Bft) 93,62 %
17.05.2023 11:14 14,1 C 16,1 C 10,6 C 63 % 1027,6 hPa 0,0 l/m 0 min 0 min 283 W/m 16,1 km/h (3 Bft) 97,87 %
17.05.2023 11:16 14,1 C 15,6 C 10,6 C 62 % 1027,6 hPa 0,0 l/m 0 min 0 min 259 W/m 22,5 km/h (4 Bft) 93,62 %
17.05.2023 11:18 14,0 C 15,6 C 10,6 C 62 % 1027,6 hPa 0,0 l/m 0 min 0 min 261 W/m 9,7 km/h (2 Bft) 97,83 %
17.05.2023 11:20 14,0 C 16,1 C 11,1 C 63 % 1027,6 hPa 0,0 l/m 0 min 0 min 264 W/m 12,9 km/h (3 Bft) 95,74 %
17.05.2023 11:22 14,0 C 15,6 C 10,6 C 62 % 1027,6 hPa 0,0 l/m 0 min 0 min 304 W/m 19,3 km/h (3 Bft) 97,87 %
17.05.2023 11:24 14,1 C 16,7 C 10,6 C 63 % 1027,6 hPa 0,0 l/m 2 min 0 min 387 W/m 16,1 km/h (3 Bft) 97,87 %
17.05.2023 11:26 14,1 C 16,1 C 10,6 C 62 % 1027,6 hPa 0,0 l/m 2 min 0 min 435 W/m 12,9 km/h (3 Bft) 95,74 %
17.05.2023 11:28 14,1 C 16,1 C 10,6 C 62 % 1027,6 hPa 0,0 l/m 0 min 0 min 268 W/m 16,1 km/h (3 Bft) 97,87 %
17.05.2023 11:30 14,1 C 15,0 C 10,0 C 62 % 1027,6 hPa 0,0 l/m 0 min 0 min 283 W/m 12,9 km/h (3 Bft) 95,74 %
17.05.2023 11:32 13,9 C 15,0 C 10,0 C 63 % 1027,6 hPa 0,0 l/m 0 min 0 min 241 W/m 12,9 km/h (3 Bft) 97,83 %
17.05.2023 11:34 13,8 C 15,6 C 10,0 C 63 % 1027,6 hPa 0,0 l/m 0 min 0 min 241 W/m 16,1 km/h (3 Bft) 97,87 %
17.05.2023 11:36 13,8 C 17,2 C 10,6 C 63 % 1027,7 hPa 0,0 l/m 2 min 0 min 716 W/m 12,9 km/h (3 Bft) 97,87 %
17.05.2023 11:38 13,8 C 17,2 C 11,1 C 64 % 1027,6 hPa 0,0 l/m 2 min 0 min 1005 W/m 12,9 km/h (3 Bft) 97,87 %
17.05.2023 11:40 13,8 C 16,1 C 10,6 C 63 % 1027,6 hPa 0,0 l/m 0 min 0 min 328 W/m 19,3 km/h (3 Bft) 95,74 %
17.05.2023 11:42 13,7 C 15,6 C 10,6 C 64 % 1027,6 hPa 0,0 l/m 0 min 0 min 250 W/m 12,9 km/h (3 Bft) 95,74 %
17.05.2023 11:44 13,7 C 15,6 C 10,0 C 64 % 1027,7 hPa 0,0 l/m 0 min 0 min 229 W/m 16,1 km/h (3 Bft) 97,83 %
17.05.2023 11:46 13,6 C 15,0 C 10,0 C 64 % 1027,6 hPa 0,0 l/m 0 min 0 min 244 W/m 12,9 km/h (3 Bft) 97,87 %
17.05.2023 11:48 13,6 C 17,8 C 10,6 C 64 % 1027,6 hPa 0,0 l/m 2 min 0 min 424 W/m 9,7 km/h (2 Bft) 95,74 %
17.05.2023 11:50 13,7 C 18,9 C 10,6 C 64 % 1027,6 hPa 0,0 l/m 2 min 0 min 965 W/m 12,9 km/h (3 Bft) 97,87 %
17.05.2023 11:52 13,9 C 19,4 C 11,1 C 63 % 1027,6 hPa 0,0 l/m 2 min 0 min 932 W/m 12,9 km/h (3 Bft) 95,74 %
17.05.2023 11:54 14,1 C 20,6 C 11,7 C 63 % 1027,6 hPa 0,0 l/m 2 min 0 min 961 W/m 12,9 km/h (3 Bft) 95,74 %
17.05.2023 11:56 14,3 C 19,4 C 11,7 C 63 % 1027,5 hPa 0,0 l/m 2 min 0 min 984 W/m 12,9 km/h (3 Bft) 44,44 %
17.05.2023 11:58 14,3 C 17,2 C 11,1 C 62 % 1027,6 hPa 0,0 l/m 2 min 0 min 542 W/m 16,1 km/h (3 Bft) 95,65 %
17.05.2023 12:00 14,1 C 16,1 C 10,6 C 60 % 1027,5 hPa 0,0 l/m 0 min 0 min 190 W/m 12,9 km/h (3 Bft) 97,87 %
17.05.2023 12:02 14,1 C 17,2 C 11,1 C 60 % 1027,5 hPa 0,0 l/m 2 min 0 min 511 W/m 12,9 km/h (3 Bft) 97,87 %
17.05.2023 12:04 14,2 C 18,9 C 11,7 C 62 % 1027,5 hPa 0,0 l/m 2 min 0 min 965 W/m 12,9 km/h (3 Bft) 97,96 %
17.05.2023 12:07 14,3 C 19,4 C 12,2 C 62 % 1027,5 hPa 0,0 l/m 3 min 0 min 935 W/m 19,3 km/h (3 Bft) 97,14 %
17.05.2023 12:08 14,3 C 20,0 C 12,2 C 62 % 1027,5 hPa 0,0 l/m 1 min 0 min 987 W/m 16,1 km/h (3 Bft) 100,00 %
17.05.2023 12:12 14,7 C 18,3 C 12,8 C 61 % 1027,5 hPa 0,0 l/m 4 min 0 min 431 W/m 9,7 km/h (2 Bft) 98,21 %
17.05.2023 12:14 14,7 C 17,2 C 13,3 C 60 % 1027,4 hPa 0,0 l/m 0 min 0 min 299 W/m 22,5 km/h (4 Bft) 97,87 %
17.05.2023 12:16 14,5 C 16,7 C 12,8 C 61 % 1027,5 hPa 0,0 l/m 0 min 0 min 301 W/m 6,4 km/h (2 Bft) 97,96 %
17.05.2023 12:18 14,4 C 17,8 C 13,9 C 62 % 1027,5 hPa 0,0 l/m 0 min 0 min 301 W/m 12,9 km/h (3 Bft) 93,62 %
17.05.2023 12:20 14,4 C 19,4 C 15,0 C 61 % 1027,5 hPa 0,0 l/m 2 min 0 min 893 W/m 12,9 km/h (3 Bft) 97,87 %
17.05.2023 12:22 14,6 C 20,6 C 16,1 C 62 % 1027,5 hPa 0,0 l/m 2 min 0 min 974 W/m 12,9 km/h (3 Bft) 97,87 %
17.05.2023 12:24 14,8 C 21,7 C 17,2 C 61 % 1027,5 hPa 0,0 l/m 2 min 0 min 988 W/m 9,7 km/h (2 Bft) 97,83 %
17.05.2023 12:26 14,9 C 21,7 C 17,2 C 59 % 1027,5 hPa 0,0 l/m 2 min 0 min 1037 W/m 16,1 km/h (3 Bft) 97,87 %
17.05.2023 12:28 14,9 C 19,4 C 17,2 C 58 % 1027,5 hPa 0,0 l/m 2 min 0 min 941 W/m 16,1 km/h (3 Bft) 97,87 %
17.05.2023 12:30 15,1 C 18,9 C 16,1 C 59 % 1027,5 hPa 0,0 l/m 0 min 0 min 327 W/m 12,9 km/h (3 Bft) 97,87 %
17.05.2023 12:32 15,1 C 17,8 C 14,4 C 60 % 1027,5 hPa 0,0 l/m 0 min 0 min 339 W/m 16,1 km/h (3 Bft) 97,87 %
17.05.2023 12:34 15,2 C 18,3 C 13,9 C 61 % 1027,5 hPa 0,0 l/m 0 min 0 min 364 W/m 16,1 km/h (3 Bft) 95,74 %
17.05.2023 12:36 15,2 C 16,7 C 12,8 C 60 % 1027,4 hPa 0,0 l/m 0 min 0 min 292 W/m 35,4 km/h (5 Bft) 97,83 %
17.05.2023 12:38 15,1 C 16,1 C 11,7 C 60 % 1027,4 hPa 0,0 l/m 0 min 0 min 223 W/m 16,1 km/h (3 Bft) 100,00 %
17.05.2023 12:40 14,9 C 15,6 C 11,7 C 60 % 1027,4 hPa 0,0 l/m 0 min 0 min 183 W/m 19,3 km/h (3 Bft) 100,00 %
17.05.2023 12:42 14,9 C 18,3 C 13,9 C 60 % 1027,4 hPa 0,0 l/m 2 min 0 min 812 W/m 12,9 km/h (3 Bft) 97,87 %
17.05.2023 12:44 14,9 C 19,4 C 15,6 C 60 % 1027,3 hPa 0,0 l/m 2 min 0 min 1015 W/m 19,3 km/h (3 Bft) 97,87 %
17.05.2023 12:46 15,1 C 20,6 C 16,7 C 60 % 1027,3 hPa 0,0 l/m 2 min 0 min 1078 W/m 16,1 km/h (3 Bft) 95,74 %
17.05.2023 12:48 15,3 C 20,6 C 16,7 C 59 % 1027,2 hPa 0,0 l/m 2 min 0 min 875 W/m 9,7 km/h (2 Bft) 97,87 %
17.05.2023 12:50 15,4 C 22,2 C 16,7 C 60 % 1027,3 hPa 0,0 l/m 2 min 0 min 448 W/m 12,9 km/h (3 Bft) 100,00 %
17.05.2023 12:52 15,6 C 20,6 C 16,1 C 60 % 1027,2 hPa 0,0 l/m 2 min 0 min 424 W/m 19,3 km/h (3 Bft) 97,87 %
17.05.2023 12:54 15,7 C 18,9 C 14,4 C 59 % 1027,3 hPa 0,0 l/m 0 min 0 min 322 W/m 9,7 km/h (2 Bft) 95,74 %
17.05.2023 12:56 15,6 C 17,2 C 13,3 C 59 % 1027,3 hPa 0,0 l/m 0 min 0 min 334 W/m 32,2 km/h (5 Bft) 97,87 %
17.05.2023 12:58 15,4 C 15,6 C 12,2 C 58 % 1027,2 hPa 0,0 l/m 0 min 0 min 205 W/m 19,3 km/h (3 Bft) 97,83 %
17.05.2023 13:00 15,3 C 16,7 C 12,2 C 59 % 1027,3 hPa 0,0 l/m 0 min 0 min 276 W/m 12,9 km/h (3 Bft) 97,87 %
17.05.2023 13:02 15,1 C 18,9 C 12,2 C 59 % 1027,2 hPa 0,0 l/m 0 min 0 min 366 W/m 16,1 km/h (3 Bft) 97,87 %
17.05.2023 13:04 15,2 C 20,6 C 12,8 C 59 % 1027,3 hPa 0,0 l/m 2 min 0 min 1002 W/m 9,7 km/h (2 Bft) 95,65 %
17.05.2023 13:06 15,3 C 22,2 C 12,8 C 56 % 1027,2 hPa 0,0 l/m 2 min 0 min 995 W/m 19,3 km/h (3 Bft) 93,62 %
17.05.2023 13:08 15,4 C 22,8 C 13,3 C 56 % 1027,2 hPa 0,0 l/m 2 min 0 min 1018 W/m 16,1 km/h (3 Bft) 93,62 %
17.05.2023 13:10 15,6 C 23,3 C 13,3 C 56 % 1027,2 hPa 0,0 l/m 2 min 0 min 1047 W/m 12,9 km/h (3 Bft) 95,74 %
17.05.2023 13:12 15,9 C 22,8 C 13,3 C 57 % 1027,2 hPa 0,0 l/m 2 min 0 min 1129 W/m 9,7 km/h (2 Bft) 95,74 %
17.05.2023 13:14 16,0 C 20,0 C 12,8 C 55 % 1027,2 hPa 0,0 l/m 2 min 0 min 679 W/m 22,5 km/h (4 Bft) 97,87 %
17.05.2023 13:16 15,9 C 20,0 C 12,8 C 56 % 1027,2 hPa 0,0 l/m 2 min 0 min 480 W/m 12,9 km/h (3 Bft) 97,87 %
17.05.2023 13:18 15,8 C 18,3 C 12,2 C 57 % 1027,1 hPa 0,0 l/m 2 min 0 min 826 W/m 19,3 km/h (3 Bft) 95,65 %
17.05.2023 13:20 15,8 C 19,4 C 12,8 C 56 % 1027,1 hPa 0,0 l/m 0 min 0 min 338 W/m 25,7 km/h (4 Bft) 97,87 %
17.05.2023 13:22 15,8 C 17,8 C 12,8 C 57 % 1027,2 hPa 0,0 l/m 0 min 0 min 347 W/m 12,9 km/h (3 Bft) 97,87 %
17.05.2023 13:24 15,7 C 17,2 C 12,2 C 57 % 1027,1 hPa 0,0 l/m 0 min 0 min 343 W/m 19,3 km/h (3 Bft) 97,87 %
17.05.2023 13:26 15,6 C 17,2 C 12,8 C 57 % 1027,0 hPa 0,0 l/m 0 min 0 min 350 W/m 12,9 km/h (3 Bft) 95,74 %
17.05.2023 13:28 15,6 C 17,2 C 12,8 C 59 % 1027,1 hPa 0,0 l/m 0 min 0 min 328 W/m 29,0 km/h (5 Bft) 97,87 %
17.05.2023 13:30 15,5 C 16,7 C 12,2 C 59 % 1027,2 hPa 0,0 l/m 0 min 0 min 270 W/m 16,1 km/h (3 Bft) 97,87 %
17.05.2023 13:32 15,4 C 17,8 C 12,8 C 59 % 1027,1 hPa 0,0 l/m 0 min 0 min 319 W/m 9,7 km/h (2 Bft) 97,83 %
17.05.2023 13:34 15,4 C 20,0 C 15,0 C 58 % 1027,1 hPa 0,0 l/m 2 min 0 min 579 W/m 19,3 km/h (3 Bft) 97,96 %
17.05.2023 13:36 15,5 C 21,7 C 16,7 C 57 % 1027,1 hPa 0,0 l/m 2 min 0 min 1071 W/m 22,5 km/h (4 Bft) 97,87 %
17.05.2023 13:38 15,6 C 22,8 C 17,2 C 57 % 1027,1 hPa 0,0 l/m 2 min 0 min 1080 W/m 22,5 km/h (4 Bft) 97,87 %
17.05.2023 13:40 15,8 C 23,3 C 18,3 C 57 % 1027,1 hPa 0,0 l/m 2 min 0 min 1110 W/m 12,9 km/h (3 Bft) 97,87 %
17.05.2023 13:42 16,0 C 22,8 C 17,8 C 57 % 1027,1 hPa 0,0 l/m 2 min 0 min 1151 W/m 12,9 km/h (3 Bft) 95,74 %
17.05.2023 13:44 16,1 C 20,6 C 15,6 C 57 % 1027,1 hPa 0,0 l/m 2 min 0 min 740 W/m 16,1 km/h (3 Bft) 95,65 %
17.05.2023 13:46 15,9 C 18,9 C 13,9 C 56 % 1027,2 hPa 0,0 l/m 0 min 0 min 398 W/m 16,1 km/h (3 Bft) 97,87 %
17.05.2023 13:48 15,8 C 17,2 C 12,8 C 56 % 1027,2 hPa 0,0 l/m 0 min 0 min 231 W/m 9,7 km/h (2 Bft) 95,74 %
17.05.2023 13:50 15,6 C 18,9 C 12,8 C 56 % 1027,1 hPa 0,0 l/m 0 min 0 min 399 W/m 12,9 km/h (3 Bft) 100,00 %
17.05.2023 13:52 15,6 C 21,7 C 12,2 C 57 % 1027,1 hPa 0,0 l/m 2 min 0 min 1068 W/m 9,7 km/h (2 Bft) 100,00 %
17.05.2023 13:54 15,7 C 22,8 C 12,8 C 57 % 1027,2 hPa 0,0 l/m 2 min 0 min 1064 W/m 16,1 km/h (3 Bft) 100,00 %
17.05.2023 13:56 15,9 C 23,3 C 12,8 C 57 % 1027,1 hPa 0,0 l/m 2 min 0 min 1054 W/m 19,3 km/h (3 Bft) 97,83 %
17.05.2023 13:58 16,1 C 22,8 C 12,8 C 56 % 1027,1 hPa 0,0 l/m 2 min 0 min 1101 W/m 25,7 km/h (4 Bft) 97,87 %
17.05.2023 14:00 16,2 C 22,8 C 12,8 C 56 % 1027,2 hPa 0,0 l/m 2 min 0 min 1124 W/m 12,9 km/h (3 Bft) 100,00 %
17.05.2023 14:02 16,3 C 20,0 C 12,8 C 56 % 1027,2 hPa 0,0 l/m 2 min 0 min 574 W/m 16,1 km/h (3 Bft) 100,00 %
17.05.2023 14:04 16,3 C 20,0 C 12,8 C 55 % 1027,2 hPa 0,0 l/m 0 min 0 min 265 W/m 16,1 km/h (3 Bft) 100,00 %
17.05.2023 14:06 16,2 C 18,3 C 12,2 C 55 % 1027,2 hPa 0,0 l/m 0 min 0 min 238 W/m 16,1 km/h (3 Bft) 100,00 %
17.05.2023 14:08 16,2 C 20,0 C 12,2 C 55 % 1027,2 hPa 0,0 l/m 0 min 0 min 402 W/m 12,9 km/h (3 Bft) 97,87 %
17.05.2023 14:10 16,2 C 22,2 C 11,7 C 53 % 1027,1 hPa 0,0 l/m 2 min 0 min 968 W/m 16,1 km/h (3 Bft) 97,14 %
17.05.2023 14:12 16,2 C 23,3 C 11,7 C 53 % 1027,2 hPa 0,0 l/m 2 min 0 min 957 W/m 16,1 km/h (3 Bft) 98,28 %
17.05.2023 14:14 16,3 C 23,3 C 11,7 C 53 % 1027,2 hPa 0,0 l/m 2 min 0 min 955 W/m 12,9 km/h (3 Bft) 100,00 %
17.05.2023 14:16 16,4 C 23,9 C 11,7 C 52 % 1027,2 hPa 0,0 l/m 2 min 0 min 964 W/m 9,7 km/h (2 Bft) 97,14 %
17.05.2023 14:18 16,4 C 23,3 C 12,2 C 52 % 1027,1 hPa 0,0 l/m 2 min 0 min 985 W/m 29,0 km/h (5 Bft) 100,00 %
17.05.2023 14:20 16,6 C 23,9 C 12,2 C 52 % 1027,1 hPa 0,0 l/m 2 min 0 min 1048 W/m 16,1 km/h (3 Bft) 97,87 %
17.05.2023 14:22 16,6 C 24,4 C 12,2 C 53 % 1027,0 hPa 0,0 l/m 2 min 0 min 1092 W/m 19,3 km/h (3 Bft) 100,00 %
17.05.2023 14:24 16,7 C 23,9 C 12,2 C 53 % 1027,1 hPa 0,0 l/m 2 min 0 min 1052 W/m 25,7 km/h (4 Bft) 97,87 %
17.05.2023 14:26 16,8 C 23,9 C 12,2 C 52 % 1027,1 hPa 0,0 l/m 2 min 0 min 997 W/m 25,7 km/h (4 Bft) 97,83 %
17.05.2023 14:28 16,8 C 23,3 C 12,2 C 52 % 1027,1 hPa 0,0 l/m 2 min 0 min 960 W/m 29,0 km/h (5 Bft) 100,00 %
17.05.2023 14:30 16,7 C 23,3 C 11,7 C 51 % 1027,2 hPa 0,0 l/m 2 min 0 min 952 W/m 25,7 km/h (4 Bft) 100,00 %
17.05.2023 14:32 16,6 C 23,9 C 11,7 C 51 % 1027,1 hPa 0,0 l/m 2 min 0 min 946 W/m 19,3 km/h (3 Bft) 100,00 %
17.05.2023 14:34 16,6 C 23,3 C 11,7 C 53 % 1027,1 hPa 0,0 l/m 2 min 0 min 971 W/m 19,3 km/h (3 Bft) 97,87 %
17.05.2023 14:36 16,6 C 23,3 C 11,7 C 53 % 1027,1 hPa 0,0 l/m 2 min 0 min 979 W/m 25,7 km/h (4 Bft) 97,87 %
17.05.2023 14:38 16,6 C 23,3 C 12,2 C 54 % 1027,1 hPa 0,0 l/m 2 min 0 min 828 W/m 19,3 km/h (3 Bft) 97,87 %
17.05.2023 14:40 16,6 C 22,2 C 12,2 C 52 % 1027,1 hPa 0,0 l/m 0 min 0 min 376 W/m 19,3 km/h (3 Bft) 95,65 %
17.05.2023 14:42 16,6 C 22,8 C 12,2 C 53 % 1027,1 hPa 0,0 l/m 2 min 0 min 462 W/m 16,1 km/h (3 Bft) 97,87 %
17.05.2023 14:44 16,6 C 21,1 C 12,2 C 53 % 1027,0 hPa 0,0 l/m 2 min 0 min 1043 W/m 29,0 km/h (5 Bft) 95,74 %
17.05.2023 14:46 16,6 C 22,2 C 12,2 C 53 % 1027,0 hPa 0,0 l/m 2 min 0 min 987 W/m 19,3 km/h (3 Bft) 97,87 %
17.05.2023 14:48 16,6 C 22,2 C 12,2 C 54 % 1027,0 hPa 0,0 l/m 2 min 0 min 998 W/m 25,7 km/h (4 Bft) 97,87 %
17.05.2023 14:50 16,7 C 22,8 C 12,2 C 53 % 1027,0 hPa 0,0 l/m 2 min 0 min 981 W/m 12,9 km/h (3 Bft) 97,87 %
17.05.2023 14:52 16,8 C 23,3 C 12,2 C 53 % 1026,9 hPa 0,0 l/m 2 min 0 min 967 W/m 19,3 km/h (3 Bft) 97,83 %
17.05.2023 14:54 16,9 C 23,9 C 12,2 C 52 % 1026,9 hPa 0,0 l/m 2 min 0 min 946 W/m 12,9 km/h (3 Bft) 95,74 %
17.05.2023 14:56 17,1 C 24,4 C 12,2 C 51 % 1027,0 hPa 0,0 l/m 2 min 0 min 941 W/m 19,3 km/h (3 Bft) 97,87 %
17.05.2023 14:58 17,0 C 23,3 C 12,2 C 51 % 1027,0 hPa 0,0 l/m 2 min 0 min 935 W/m 19,3 km/h (3 Bft) 97,87 %
17.05.2023 15:00 17,0 C 23,9 C 12,2 C 52 % 1026,9 hPa 0,0 l/m 2 min 0 min 952 W/m 12,9 km/h (3 Bft) 97,87 %
17.05.2023 15:02 17,0 C 22,8 C 12,2 C 52 % 1027,0 hPa 0,0 l/m 2 min 0 min 965 W/m 16,1 km/h (3 Bft) 97,87 %
17.05.2023 15:04 17,0 C 20,0 C 12,2 C 52 % 1026,9 hPa 0,0 l/m 2 min 0 min 963 W/m 19,3 km/h (3 Bft) 97,92 %
17.05.2023 15:06 16,8 C 20,0 C 11,7 C 53 % 1027,0 hPa 0,0 l/m 0 min 0 min 237 W/m 16,1 km/h (3 Bft) 96,61 %
17.05.2023 15:08 16,7 C 20,6 C 11,7 C 53 % 1027,0 hPa 0,0 l/m 2 min 0 min 834 W/m 16,1 km/h (3 Bft) 100,00 %
17.05.2023 15:10 16,7 C 21,7 C 12,2 C 53 % 1027,1 hPa 0,0 l/m 2 min 0 min 935 W/m 16,1 km/h (3 Bft) 100,00 %
17.05.2023 15:12 16,7 C 21,1 C 11,7 C 52 % 1027,0 hPa 0,0 l/m 2 min 0 min 941 W/m 16,1 km/h (3 Bft) 100,00 %
17.05.2023 15:14 16,7 C 21,1 C 12,2 C 53 % 1027,0 hPa 0,0 l/m 2 min 0 min 947 W/m 16,1 km/h (3 Bft) 100,00 %
17.05.2023 15:16 16,6 C 18,9 C 11,7 C 52 % 1027,0 hPa 0,0 l/m 0 min 0 min 348 W/m 19,3 km/h (3 Bft) 100,00 %
17.05.2023 15:18 16,4 C 18,9 C 11,1 C 52 % 1027,1 hPa 0,0 l/m 0 min 0 min 166 W/m 16,1 km/h (3 Bft) 100,00 %
17.05.2023 15:20 16,4 C 20,6 C 11,7 C 53 % 1027,0 hPa 0,0 l/m 2 min 0 min 730 W/m 12,9 km/h (3 Bft) 97,87 %
17.05.2023 15:22 16,4 C 21,7 C 11,7 C 53 % 1027,0 hPa 0,0 l/m 2 min 0 min 885 W/m 12,9 km/h (3 Bft) 100,00 %
17.05.2023 15:24 16,5 C 20,0 C 11,7 C 53 % 1027,0 hPa 0,0 l/m 2 min 0 min 882 W/m 12,9 km/h (3 Bft) 100,00 %
17.05.2023 15:26 16,5 C 21,1 C 11,7 C 54 % 1027,0 hPa 0,0 l/m 2 min 0 min 893 W/m 16,1 km/h (3 Bft) 100,00 %
17.05.2023 15:28 16,6 C 22,2 C 11,7 C 54 % 1027,0 hPa 0,0 l/m 2 min 0 min 960 W/m 9,7 km/h (2 Bft) 100,00 %
17.05.2023 15:30 16,8 C 23,3 C 12,2 C 54 % 1027,0 hPa 0,0 l/m 2 min 0 min 958 W/m 12,9 km/h (3 Bft) 100,00 %
17.05.2023 15:32 16,9 C 23,3 C 12,2 C 53 % 1026,9 hPa 0,0 l/m 2 min 0 min 945 W/m 19,3 km/h (3 Bft) 97,87 %
17.05.2023 15:34 16,9 C 22,8 C 12,2 C 52 % 1026,9 hPa 0,0 l/m 2 min 0 min 920 W/m 19,3 km/h (3 Bft) 100,00 %
17.05.2023 15:36 16,9 C 22,8 C 12,2 C 52 % 1026,9 hPa 0,0 l/m 2 min 0 min 919 W/m 19,3 km/h (3 Bft) 97,87 %
17.05.2023 15:38 17,0 C 23,3 C 12,2 C 54 % 1027,0 hPa 0,0 l/m 2 min 0 min 913 W/m 12,9 km/h (3 Bft) 100,00 %
17.05.2023 15:40 17,1 C 23,3 C 12,8 C 54 % 1026,9 hPa 0,0 l/m 2 min 0 min 896 W/m 9,7 km/h (2 Bft) 95,74 %
17.05.2023 15:42 17,1 C 21,7 C 12,2 C 52 % 1027,0 hPa 0,0 l/m 2 min 0 min 896 W/m 16,1 km/h (3 Bft) 100,00 %
17.05.2023 15:44 17,0 C 20,0 C 11,7 C 51 % 1027,0 hPa 0,0 l/m 2 min 0 min 896 W/m 25,7 km/h (4 Bft) 95,65 %
17.05.2023 15:46 16,8 C 19,4 C 11,7 C 52 % 1026,9 hPa 0,0 l/m 2 min 0 min 896 W/m 9,7 km/h (2 Bft) 95,74 %
17.05.2023 15:48 16,6 C 20,0 C 11,1 C 52 % 1027,0 hPa 0,0 l/m 2 min 0 min 882 W/m 16,1 km/h (3 Bft) 95,74 %
17.05.2023 15:50 16,5 C 20,6 C 11,7 C 53 % 1026,9 hPa 0,0 l/m 2 min 0 min 824 W/m 16,1 km/h (3 Bft) 97,96 %
17.05.2023 15:52 16,5 C 21,1 C 11,7 C 52 % 1027,0 hPa 0,0 l/m 2 min 0 min 825 W/m 16,1 km/h (3 Bft) 91,49 %
17.05.2023 15:54 16,5 C 21,1 C 11,7 C 52 % 1026,9 hPa 0,0 l/m 2 min 0 min 820 W/m 19,3 km/h (3 Bft) 95,74 %
17.05.2023 15:56 16,5 C 21,1 C 11,7 C 52 % 1026,9 hPa 0,0 l/m 2 min 0 min 811 W/m 12,9 km/h (3 Bft) 95,74 %
17.05.2023 15:58 16,6 C 21,1 C 11,7 C 52 % 1026,9 hPa 0,0 l/m 2 min 0 min 805 W/m 22,5 km/h (4 Bft) 97,83 %
17.05.2023 16:00 16,6 C 21,1 C 11,7 C 51 % 1026,9 hPa 0,0 l/m 2 min 0 min 795 W/m 16,1 km/h (3 Bft) 95,74 %
17.05.2023 16:02 16,6 C 21,7 C 11,7 C 51 % 1026,8 hPa 0,0 l/m 2 min 0 min 796 W/m 19,3 km/h (3 Bft) 95,74 %
17.05.2023 16:04 16,7 C 21,7 C 11,7 C 52 % 1026,9 hPa 0,0 l/m 2 min 0 min 806 W/m 19,3 km/h (3 Bft) 93,75 %
17.05.2023 16:06 16,7 C 21,7 C 12,2 C 52 % 1026,8 hPa 0,0 l/m 2 min 0 min 816 W/m 19,3 km/h (3 Bft) 93,62 %
17.05.2023 16:08 16,8 C 21,7 C 12,2 C 52 % 1026,9 hPa 0,0 l/m 2 min 0 min 811 W/m 32,2 km/h (5 Bft) 95,74 %
17.05.2023 16:10 16,8 C 21,1 C 12,2 C 51 % 1026,9 hPa 0,0 l/m 2 min 0 min 815 W/m 22,5 km/h (4 Bft) 95,65 %
17.05.2023 16:12 16,8 C 21,1 C 12,2 C 52 % 1026,8 hPa 0,0 l/m 2 min 0 min 813 W/m 16,1 km/h (3 Bft) 95,74 %
17.05.2023 16:14 16,8 C 21,7 C 12,2 C 52 % 1026,8 hPa 0,0 l/m 2 min 0 min 798 W/m 9,7 km/h (2 Bft) 95,74 %
17.05.2023 16:16 16,9 C 21,7 C 12,2 C 52 % 1026,8 hPa 0,0 l/m 2 min 0 min 783 W/m 16,1 km/h (3 Bft) 95,74 %
17.05.2023 16:18 17,1 C 21,7 C 12,2 C 52 % 1026,7 hPa 0,0 l/m 2 min 0 min 781 W/m 12,9 km/h (3 Bft) 95,74 %
17.05.2023 16:20 17,1 C 21,1 C 12,2 C 53 % 1026,7 hPa 0,0 l/m 2 min 0 min 786 W/m 16,1 km/h (3 Bft) 93,62 %
17.05.2023 16:22 17,1 C 21,1 C 12,2 C 53 % 1026,7 hPa 0,0 l/m 2 min 0 min 811 W/m 19,3 km/h (3 Bft) 95,74 %
17.05.2023 16:24 17,1 C 21,7 C 12,2 C 53 % 1026,7 hPa 0,0 l/m 2 min 0 min 820 W/m 12,9 km/h (3 Bft) 95,65 %
17.05.2023 16:26 17,0 C 21,1 C 12,2 C 53 % 1026,7 hPa 0,0 l/m 2 min 0 min 800 W/m 16,1 km/h (3 Bft) 93,62 %
17.05.2023 16:28 16,9 C 21,1 C 12,2 C 52 % 1026,7 hPa 0,0 l/m 2 min 0 min 796 W/m 16,1 km/h (3 Bft) 95,74 %
17.05.2023 16:30 17,0 C 21,1 C 12,2 C 53 % 1026,7 hPa 0,0 l/m 2 min 0 min 735 W/m 12,9 km/h (3 Bft) 97,87 %
17.05.2023 16:32 16,9 C 20,6 C 12,2 C 52 % 1026,7 hPa 0,0 l/m 2 min 0 min 661 W/m 16,1 km/h (3 Bft) 97,87 %
17.05.2023 16:34 16,9 C 21,1 C 12,2 C 54 % 1026,7 hPa 0,0 l/m 2 min 0 min 741 W/m 12,9 km/h (3 Bft) 97,87 %
17.05.2023 16:36 16,9 C 21,7 C 12,2 C 53 % 1026,7 hPa 0,0 l/m 2 min 0 min 729 W/m 9,7 km/h (2 Bft) 97,83 %
17.05.2023 16:38 16,9 C 20,6 C 12,2 C 52 % 1026,7 hPa 0,0 l/m 2 min 0 min 495 W/m 16,1 km/h (3 Bft) 93,62 %
17.05.2023 16:40 16,8 C 20,6 C 12,2 C 52 % 1026,7 hPa 0,0 l/m 0 min 0 min 283 W/m 25,7 km/h (4 Bft) 97,87 %
17.05.2023 16:42 16,8 C 18,9 C 12,2 C 51 % 1026,6 hPa 0,0 l/m 0 min 0 min 185 W/m 16,1 km/h (3 Bft) 97,87 %
17.05.2023 16:44 16,7 C 20,0 C 12,2 C 51 % 1026,6 hPa 0,0 l/m 2 min 0 min 425 W/m 16,1 km/h (3 Bft) 95,74 %
17.05.2023 16:46 16,7 C 20,6 C 12,2 C 52 % 1026,6 hPa 0,0 l/m 2 min 0 min 702 W/m 12,9 km/h (3 Bft) 95,74 %
17.05.2023 16:48 16,7 C 21,1 C 12,2 C 51 % 1026,6 hPa 0,0 l/m 2 min 0 min 689 W/m 12,9 km/h (3 Bft) 95,65 %
17.05.2023 16:50 16,8 C 21,1 C 12,2 C 51 % 1026,6 hPa 0,0 l/m 2 min 0 min 687 W/m 6,4 km/h (2 Bft) 97,87 %
17.05.2023 16:52 16,8 C 22,2 C 12,8 C 52 % 1026,6 hPa 0,0 l/m 2 min 0 min 678 W/m 12,9 km/h (3 Bft) 95,74 %
17.05.2023 16:54 16,9 C 22,2 C 12,8 C 51 % 1026,6 hPa 0,0 l/m 2 min 0 min 671 W/m 12,9 km/h (3 Bft) 97,87 %
17.05.2023 16:56 16,9 C 21,7 C 12,8 C 51 % 1026,7 hPa 0,0 l/m 2 min 0 min 669 W/m 22,5 km/h (4 Bft) 97,87 %
17.05.2023 16:58 16,8 C 21,7 C 12,8 C 51 % 1026,7 hPa 0,0 l/m 2 min 0 min 670 W/m 12,9 km/h (3 Bft) 97,87 %
17.05.2023 17:00 16,8 C 21,1 C 12,8 C 51 % 1026,7 hPa 0,0 l/m 2 min 0 min 664 W/m 16,1 km/h (3 Bft) 97,87 %
17.05.2023 17:02 16,8 C 20,6 C 12,8 C 51 % 1026,7 hPa 0,0 l/m 2 min 0 min 659 W/m 16,1 km/h (3 Bft) 97,83 %
17.05.2023 17:04 16,7 C 20,0 C 12,2 C 51 % 1026,7 hPa 0,0 l/m 2 min 0 min 674 W/m 12,9 km/h (3 Bft) 97,96 %
17.05.2023 17:06 16,6 C 18,9 C 12,2 C 51 % 1026,7 hPa 0,0 l/m 0 min 0 min 255 W/m 19,3 km/h (3 Bft) 97,87 %
17.05.2023 17:08 16,4 C 17,8 C 12,2 C 51 % 1026,7 hPa 0,0 l/m 0 min 0 min 162 W/m 22,5 km/h (4 Bft) 97,87 %
17.05.2023 17:10 16,3 C 17,2 C 11,7 C 53 % 1026,7 hPa 0,0 l/m 0 min 0 min 160 W/m 19,3 km/h (3 Bft) 97,87 %
17.05.2023 17:12 16,2 C 17,8 C 11,7 C 54 % 1026,7 hPa 0,0 l/m 2 min 0 min 335 W/m 12,9 km/h (3 Bft) 97,87 %
17.05.2023 17:14 16,2 C 18,9 C 12,2 C 54 % 1026,8 hPa 0,0 l/m 2 min 0 min 622 W/m 16,1 km/h (3 Bft) 97,87 %
17.05.2023 17:16 16,3 C 20,0 C 12,8 C 53 % 1026,7 hPa 0,0 l/m 2 min 0 min 614 W/m 16,1 km/h (3 Bft) 95,65 %
17.05.2023 17:18 16,3 C 21,1 C 12,8 C 52 % 1026,7 hPa 0,0 l/m 2 min 0 min 609 W/m 16,1 km/h (3 Bft) 95,74 %
17.05.2023 17:20 16,4 C 21,1 C 12,8 C 52 % 1026,7 hPa 0,0 l/m 2 min 0 min 607 W/m 12,9 km/h (3 Bft) 97,87 %
17.05.2023 17:22 16,4 C 21,1 C 12,8 C 51 % 1026,7 hPa 0,0 l/m 2 min 0 min 608 W/m 16,1 km/h (3 Bft) 97,87 %
17.05.2023 17:24 16,5 C 20,6 C 12,8 C 52 % 1026,7 hPa 0,0 l/m 2 min 0 min 598 W/m 16,1 km/h (3 Bft) 100,00 %
17.05.2023 17:26 16,6 C 21,1 C 12,8 C 53 % 1026,7 hPa 0,0 l/m 2 min 0 min 592 W/m 16,1 km/h (3 Bft) 97,87 %
17.05.2023 17:28 16,7 C 20,6 C 12,8 C 52 % 1026,7 hPa 0,0 l/m 2 min 0 min 583 W/m 16,1 km/h (3 Bft) 100,00 %
17.05.2023 17:30 16,6 C 21,1 C 12,8 C 52 % 1026,7 hPa 0,0 l/m 2 min 0 min 574 W/m 16,1 km/h (3 Bft) 100,00 %
17.05.2023 17:32 16,6 C 20,6 C 12,8 C 51 % 1026,7 hPa 0,0 l/m 2 min 0 min 553 W/m 9,7 km/h (2 Bft) 100,00 %
17.05.2023 17:34 16,6 C 20,6 C 12,8 C 52 % 1026,6 hPa 0,0 l/m 2 min 0 min 552 W/m 16,1 km/h (3 Bft) 100,00 %
17.05.2023 17:36 16,6 C 21,1 C 13,3 C 52 % 1026,6 hPa 0,0 l/m 2 min 0 min 562 W/m 12,9 km/h (3 Bft) 100,00 %
17.05.2023 17:38 16,7 C 21,1 C 13,3 C 52 % 1026,6 hPa 0,0 l/m 2 min 0 min 528 W/m 16,1 km/h (3 Bft) 100,00 %
17.05.2023 17:40 16,7 C 20,6 C 12,8 C 51 % 1026,6 hPa 0,0 l/m 2 min 0 min 358 W/m 12,9 km/h (3 Bft) 100,00 %
17.05.2023 17:42 16,7 C 20,0 C 13,3 C 52 % 1026,6 hPa 0,0 l/m 2 min 0 min 455 W/m 12,9 km/h (3 Bft) 100,00 %
17.05.2023 17:44 16,6 C 20,0 C 12,8 C 52 % 1026,6 hPa 0,0 l/m 0 min 0 min 174 W/m 12,9 km/h (3 Bft) 100,00 %
17.05.2023 17:46 16,5 C 20,6 C 12,8 C 52 % 1026,5 hPa 0,0 l/m 2 min 0 min 434 W/m 19,3 km/h (3 Bft) 100,00 %
17.05.2023 17:48 16,6 C 21,1 C 12,8 C 52 % 1026,5 hPa 0,0 l/m 2 min 0 min 531 W/m 9,7 km/h (2 Bft) 100,00 %
17.05.2023 17:50 16,6 C 21,1 C 12,8 C 52 % 1026,5 hPa 0,0 l/m 2 min 0 min 525 W/m 9,7 km/h (2 Bft) 100,00 %
17.05.2023 17:52 16,7 C 21,1 C 12,8 C 52 % 1026,5 hPa 0,0 l/m 2 min 0 min 520 W/m 16,1 km/h (3 Bft) 100,00 %
17.05.2023 17:54 16,7 C 21,1 C 12,8 C 52 % 1026,5 hPa 0,0 l/m 2 min 0 min 514 W/m 9,7 km/h (2 Bft) 100,00 %
17.05.2023 17:56 16,8 C 21,1 C 13,3 C 52 % 1026,5 hPa 0,0 l/m 2 min 0 min 507 W/m 12,9 km/h (3 Bft) 100,00 %
17.05.2023 17:58 16,8 C 21,1 C 13,3 C 52 % 1026,5 hPa 0,0 l/m 2 min 0 min 497 W/m 19,3 km/h (3 Bft) 100,00 %
17.05.2023 18:00 16,7 C 19,4 C 12,8 C 52 % 1026,5 hPa 0,0 l/m 2 min 0 min 490 W/m 16,1 km/h (3 Bft) 97,87 %
17.05.2023 18:02 16,6 C 20,0 C 12,8 C 52 % 1026,5 hPa 0,0 l/m 2 min 0 min 484 W/m 12,9 km/h (3 Bft) 100,00 %
17.05.2023 18:04 16,6 C 20,6 C 12,8 C 53 % 1026,5 hPa 0,0 l/m 2 min 0 min 482 W/m 19,3 km/h (3 Bft) 97,92 %
17.05.2023 18:07 16,7 C 21,7 C 13,3 C 53 % 1026,5 hPa 0,0 l/m 3 min 0 min 475 W/m 16,1 km/h (3 Bft) 97,92 %
17.05.2023 18:08 16,7 C 21,7 C 13,3 C 53 % 1026,5 hPa 0,0 l/m 1 min 0 min 476 W/m 16,1 km/h (3 Bft) 100,00 %
17.05.2023 18:10 16,8 C 21,7 C 13,9 C 52 % 1026,6 hPa 0,0 l/m 2 min 0 min 467 W/m 22,5 km/h (4 Bft) 100,00 %
17.05.2023 18:12 16,9 C 21,1 C 13,9 C 53 % 1026,5 hPa 0,0 l/m 2 min 0 min 461 W/m 9,7 km/h (2 Bft) 100,00 %
17.05.2023 18:14 16,9 C 21,1 C 13,3 C 53 % 1026,6 hPa 0,0 l/m 2 min 0 min 445 W/m 22,5 km/h (4 Bft) 100,00 %
17.05.2023 18:16 16,8 C 20,0 C 12,8 C 51 % 1026,6 hPa 0,0 l/m 2 min 0 min 433 W/m 22,5 km/h (4 Bft) 100,00 %
17.05.2023 18:18 16,7 C 20,0 C 12,8 C 52 % 1026,6 hPa 0,0 l/m 2 min 0 min 424 W/m 16,1 km/h (3 Bft) 100,00 %
17.05.2023 18:20 16,7 C 20,6 C 12,8 C 52 % 1026,6 hPa 0,0 l/m 2 min 0 min 411 W/m 19,3 km/h (3 Bft) 100,00 %
17.05.2023 18:22 16,7 C 21,1 C 12,8 C 52 % 1026,6 hPa 0,0 l/m 2 min 0 min 404 W/m 9,7 km/h (2 Bft) 100,00 %
17.05.2023 18:24 16,7 C 21,1 C 12,8 C 52 % 1026,5 hPa 0,0 l/m 2 min 0 min 400 W/m 19,3 km/h (3 Bft) 95,74 %
17.05.2023 18:26 16,7 C 20,6 C 12,8 C 52 % 1026,6 hPa 0,0 l/m 2 min 0 min 396 W/m 16,1 km/h (3 Bft) 93,62 %
17.05.2023 18:28 16,7 C 20,0 C 12,8 C 52 % 1026,5 hPa 0,0 l/m 2 min 0 min 388 W/m 19,3 km/h (3 Bft) 97,87 %
17.05.2023 18:30 16,6 C 19,4 C 12,8 C 52 % 1026,6 hPa 0,0 l/m 2 min 0 min 378 W/m 22,5 km/h (4 Bft) 97,87 %
17.05.2023 18:32 16,6 C 19,4 C 12,8 C 53 % 1026,7 hPa 0,0 l/m 2 min 0 min 371 W/m 25,7 km/h (4 Bft) 97,87 %
17.05.2023 18:34 16,6 C 20,0 C 12,8 C 53 % 1026,7 hPa 0,0 l/m 2 min 0 min 366 W/m 12,9 km/h (3 Bft) 97,83 %
17.05.2023 18:36 16,6 C 20,0 C 12,8 C 52 % 1026,7 hPa 0,0 l/m 2 min 0 min 361 W/m 16,1 km/h (3 Bft) 97,87 %
17.05.2023 18:38 16,5 C 20,6 C 12,8 C 53 % 1026,7 hPa 0,0 l/m 2 min 0 min 355 W/m 19,3 km/h (3 Bft) 97,87 %
17.05.2023 18:40 16,4 C 20,0 C 12,8 C 52 % 1026,7 hPa 0,0 l/m 2 min 0 min 349 W/m 29,0 km/h (5 Bft) 95,74 %
17.05.2023 18:42 16,4 C 19,4 C 12,8 C 52 % 1026,7 hPa 0,0 l/m 2 min 0 min 340 W/m 19,3 km/h (3 Bft) 97,87 %
17.05.2023 18:44 16,4 C 19,4 C 12,2 C 53 % 1026,7 hPa 0,0 l/m 2 min 0 min 333 W/m 16,1 km/h (3 Bft) 97,87 %
17.05.2023 18:46 16,3 C 19,4 C 12,2 C 54 % 1026,7 hPa 0,0 l/m 2 min 0 min 328 W/m 9,7 km/h (2 Bft) 97,92 %
17.05.2023 18:48 16,3 C 20,0 C 11,7 C 54 % 1026,7 hPa 0,0 l/m 2 min 0 min 322 W/m 9,7 km/h (2 Bft) 95,65 %
17.05.2023 18:50 16,3 C 19,4 C 11,7 C 54 % 1026,7 hPa 0,0 l/m 2 min 0 min 311 W/m 19,3 km/h (3 Bft) 97,87 %
17.05.2023 18:52 16,3 C 20,0 C 11,7 C 54 % 1026,7 hPa 0,0 l/m 2 min 0 min 301 W/m 12,9 km/h (3 Bft) 97,87 %
17.05.2023 18:54 16,2 C 20,0 C 11,1 C 54 % 1026,7 hPa 0,0 l/m 2 min 0 min 291 W/m 12,9 km/h (3 Bft) 95,74 %
17.05.2023 18:56 16,1 C 20,0 C 11,1 C 54 % 1026,7 hPa 0,0 l/m 2 min 0 min 284 W/m 12,9 km/h (3 Bft) 97,87 %
17.05.2023 18:58 15,9 C 20,0 C 11,1 C 54 % 1026,7 hPa 0,0 l/m 2 min 0 min 279 W/m 9,7 km/h (2 Bft) 95,74 %
17.05.2023 19:00 15,8 C 20,6 C 11,1 C 55 % 1026,7 hPa 0,0 l/m 2 min 0 min 278 W/m 12,9 km/h (3 Bft) 95,65 %
17.05.2023 19:02 15,8 C 20,0 C 11,1 C 55 % 1026,7 hPa 0,0 l/m 2 min 0 min 275 W/m 19,3 km/h (3 Bft) 97,87 %
17.05.2023 19:04 15,7 C 19,4 C 11,1 C 55 % 1026,7 hPa 0,0 l/m 2 min 0 min 270 W/m 19,3 km/h (3 Bft) 95,92 %
17.05.2023 19:06 15,6 C 18,9 C 11,1 C 55 % 1026,7 hPa 0,0 l/m 2 min 0 min 266 W/m 12,9 km/h (3 Bft) 95,74 %
17.05.2023 19:08 15,6 C 18,9 C 11,1 C 55 % 1026,8 hPa 0,0 l/m 2 min 0 min 260 W/m 19,3 km/h (3 Bft) 100,00 %
17.05.2023 19:10 15,4 C 18,3 C 10,6 C 55 % 1026,7 hPa 0,0 l/m 2 min 0 min 253 W/m 16,1 km/h (3 Bft) 95,74 %
17.05.2023 19:12 15,3 C 17,2 C 10,6 C 55 % 1026,7 hPa 0,0 l/m 2 min 0 min 246 W/m 16,1 km/h (3 Bft) 93,62 %
17.05.2023 19:14 15,3 C 16,7 C 10,6 C 56 % 1026,7 hPa 0,0 l/m 2 min 0 min 236 W/m 16,1 km/h (3 Bft) 95,65 %
17.05.2023 19:16 15,1 C 15,6 C 10,6 C 55 % 1026,8 hPa 0,0 l/m 2 min 0 min 170 W/m 16,1 km/h (3 Bft) 95,74 %
17.05.2023 19:18 15,1 C 15,0 C 10,6 C 56 % 1026,7 hPa 0,0 l/m 2 min 0 min 156 W/m 9,7 km/h (2 Bft) 93,62 %
17.05.2023 19:20 15,0 C 14,4 C 10,6 C 55 % 1026,7 hPa 0,0 l/m 0 min 0 min 134 W/m 22,5 km/h (4 Bft) 93,62 %
17.05.2023 19:22 14,9 C 14,4 C 10,6 C 56 % 1026,7 hPa 0,0 l/m 2 min 0 min 192 W/m 19,3 km/h (3 Bft) 95,74 %
17.05.2023 19:24 14,9 C 14,4 C 10,6 C 56 % 1026,7 hPa 0,0 l/m 2 min 0 min 205 W/m 9,7 km/h (2 Bft) 91,49 %
17.05.2023 19:26 14,8 C 14,4 C 10,6 C 56 % 1026,7 hPa 0,0 l/m 2 min 0 min 200 W/m 19,3 km/h (3 Bft) 95,65 %
17.05.2023 19:28 14,7 C 14,4 C 10,6 C 56 % 1026,7 hPa 0,0 l/m 2 min 0 min 194 W/m 16,1 km/h (3 Bft) 95,74 %
17.05.2023 19:30 14,7 C 14,4 C 10,6 C 56 % 1026,7 hPa 0,0 l/m 2 min 0 min 157 W/m 9,7 km/h (2 Bft) 95,74 %
17.05.2023 19:32 14,6 C 14,4 C 10,0 C 56 % 1026,8 hPa 0,0 l/m 0 min 0 min 96 W/m 16,1 km/h (3 Bft) 95,74 %
17.05.2023 19:34 14,6 C 14,4 C 10,6 C 56 % 1026,8 hPa 0,0 l/m 0 min 0 min 82 W/m 12,9 km/h (3 Bft) 95,74 %
17.05.2023 19:36 14,5 C 14,4 C 10,6 C 56 % 1026,8 hPa 0,0 l/m 0 min 0 min 79 W/m 12,9 km/h (3 Bft) 93,62 %
17.05.2023 19:38 14,5 C 14,4 C 10,0 C 56 % 1026,8 hPa 0,0 l/m 0 min 0 min 77 W/m 9,7 km/h (2 Bft) 95,74 %
17.05.2023 19:40 14,5 C 14,4 C 10,0 C 56 % 1026,8 hPa 0,0 l/m 0 min 0 min 76 W/m 16,1 km/h (3 Bft) 95,65 %
17.05.2023 19:42 14,4 C 14,4 C 10,0 C 56 % 1026,8 hPa 0,0 l/m 0 min 0 min 75 W/m 9,7 km/h (2 Bft) 95,74 %
17.05.2023 19:44 14,4 C 14,4 C 10,0 C 57 % 1026,8 hPa 0,0 l/m 0 min 0 min 73 W/m 9,7 km/h (2 Bft) 95,74 %
17.05.2023 19:46 14,4 C 13,9 C 10,0 C 56 % 1026,8 hPa 0,0 l/m 0 min 0 min 72 W/m 16,1 km/h (3 Bft) 95,74 %
17.05.2023 19:48 14,4 C 13,9 C 10,0 C 56 % 1026,8 hPa 0,0 l/m 0 min 0 min 70 W/m 6,4 km/h (2 Bft) 97,87 %
17.05.2023 19:50 14,3 C 13,9 C 10,0 C 56 % 1026,9 hPa 0,0 l/m 0 min 0 min 69 W/m 9,7 km/h (2 Bft) 97,87 %
17.05.2023 19:52 14,3 C 13,9 C 10,0 C 56 % 1026,8 hPa 0,0 l/m 0 min 0 min 68 W/m 6,4 km/h (2 Bft) 100,00 %
17.05.2023 19:54 14,3 C 13,9 C 10,0 C 57 % 1026,9 hPa 0,0 l/m 0 min 0 min 67 W/m 16,1 km/h (3 Bft) 100,00 %
17.05.2023 19:56 14,3 C 13,9 C 10,0 C 57 % 1026,8 hPa 0,0 l/m 0 min 0 min 64 W/m 16,1 km/h (3 Bft) 100,00 %
17.05.2023 19:58 14,2 C 13,9 C 10,0 C 57 % 1026,8 hPa 0,0 l/m 0 min 0 min 62 W/m 9,7 km/h (2 Bft) 100,00 %
17.05.2023 20:00 14,2 C 13,9 C 9,4 C 57 % 1026,8 hPa 0,0 l/m 0 min 0 min 62 W/m 16,1 km/h (3 Bft) 100,00 %
17.05.2023 20:02 14,1 C 13,9 C 9,4 C 57 % 1026,8 hPa 0,0 l/m 0 min 0 min 59 W/m 6,4 km/h (2 Bft) 97,87 %
17.05.2023 20:04 14,1 C 13,3 C 9,4 C 57 % 1026,9 hPa 0,0 l/m 0 min 0 min 58 W/m 12,9 km/h (3 Bft) 100,00 %
17.05.2023 20:06 14,0 C 13,3 C 9,4 C 57 % 1026,9 hPa 0,0 l/m 0 min 0 min 56 W/m 6,4 km/h (2 Bft) 100,00 %
17.05.2023 20:08 14,0 C 13,3 C 9,4 C 57 % 1026,9 hPa 0,0 l/m 0 min 0 min 54 W/m 16,1 km/h (3 Bft) 100,00 %
17.05.2023 20:10 13,9 C 13,3 C 9,4 C 57 % 1026,9 hPa 0,0 l/m 0 min 0 min 53 W/m 9,7 km/h (2 Bft) 100,00 %
17.05.2023 20:12 13,9 C 13,3 C 9,4 C 58 % 1026,9 hPa 0,0 l/m 0 min 0 min 52 W/m 12,9 km/h (3 Bft) 97,87 %
17.05.2023 20:14 13,9 C 13,3 C 9,4 C 58 % 1026,8 hPa 0,0 l/m 0 min 0 min 50 W/m 9,7 km/h (2 Bft) 100,00 %
17.05.2023 20:16 13,8 C 13,3 C 9,4 C 59 % 1026,9 hPa 0,0 l/m 0 min 0 min 49 W/m 12,9 km/h (3 Bft) 100,00 %
17.05.2023 20:18 13,8 C 13,3 C 9,4 C 58 % 1026,9 hPa 0,0 l/m 0 min 0 min 47 W/m 12,9 km/h (3 Bft) 100,00 %
17.05.2023 20:20 13,8 C 13,3 C 9,4 C 58 % 1026,8 hPa 0,0 l/m 0 min 0 min 46 W/m 9,7 km/h (2 Bft) 100,00 %
17.05.2023 20:22 13,8 C 13,3 C 9,4 C 59 % 1026,9 hPa 0,0 l/m 0 min 0 min 44 W/m 9,7 km/h (2 Bft) 100,00 %
17.05.2023 20:24 13,7 C 13,3 C 9,4 C 58 % 1026,9 hPa 0,0 l/m 0 min 0 min 43 W/m 12,9 km/h (3 Bft) 100,00 %
17.05.2023 20:26 13,7 C 12,8 C 9,4 C 58 % 1026,9 hPa 0,0 l/m 0 min 0 min 41 W/m 12,9 km/h (3 Bft) 100,00 %
17.05.2023 20:28 13,7 C 12,8 C 9,4 C 58 % 1026,9 hPa 0,0 l/m 0 min 0 min 40 W/m 9,7 km/h (2 Bft) 100,00 %
17.05.2023 20:30 13,6 C 12,8 C 9,4 C 58 % 1026,9 hPa 0,0 l/m 0 min 0 min 39 W/m 12,9 km/h (3 Bft) 100,00 %
17.05.2023 20:32 13,6 C 12,8 C 9,4 C 58 % 1026,9 hPa 0,0 l/m 0 min 0 min 37 W/m 12,9 km/h (3 Bft) 100,00 %
17.05.2023 20:34 13,6 C 12,8 C 9,4 C 58 % 1026,9 hPa 0,0 l/m 0 min 0 min 36 W/m 9,7 km/h (2 Bft) 95,74 %
17.05.2023 20:36 13,5 C 12,8 C 8,9 C 58 % 1026,9 hPa 0,0 l/m 0 min 0 min 34 W/m 9,7 km/h (2 Bft) 100,00 %
17.05.2023 20:38 13,5 C 12,8 C 8,9 C 58 % 1026,9 hPa 0,0 l/m 0 min 0 min 33 W/m 9,7 km/h (2 Bft) 95,74 %
17.05.2023 20:40 13,4 C 12,8 C 8,9 C 58 % 1026,9 hPa 0,0 l/m 0 min 0 min 32 W/m 16,1 km/h (3 Bft) 100,00 %
17.05.2023 20:42 13,4 C 12,8 C 8,9 C 59 % 1026,9 hPa 0,0 l/m 0 min 0 min 30 W/m 19,3 km/h (3 Bft) 97,87 %
17.05.2023 20:44 13,4 C 12,8 C 8,9 C 59 % 1026,9 hPa 0,0 l/m 0 min 0 min 29 W/m 9,7 km/h (2 Bft) 100,00 %
17.05.2023 20:46 13,4 C 12,8 C 8,9 C 59 % 1027,0 hPa 0,0 l/m 0 min 0 min 28 W/m 12,9 km/h (3 Bft) 100,00 %
17.05.2023 20:48 13,3 C 12,8 C 8,9 C 59 % 1026,9 hPa 0,0 l/m 0 min 0 min 26 W/m 9,7 km/h (2 Bft) 100,00 %
17.05.2023 20:50 13,3 C 12,2 C 8,9 C 60 % 1026,9 hPa 0,0 l/m 0 min 0 min 25 W/m 9,7 km/h (2 Bft) 100,00 %
17.05.2023 20:52 13,3 C 12,2 C 8,9 C 60 % 1026,9 hPa 0,0 l/m 0 min 0 min 23 W/m 6,4 km/h (2 Bft) 100,00 %
17.05.2023 20:54 13,2 C 12,2 C 8,9 C 60 % 1026,9 hPa 0,0 l/m 0 min 0 min 21 W/m 6,4 km/h (2 Bft) 100,00 %
17.05.2023 20:56 13,2 C 12,2 C 8,9 C 61 % 1026,9 hPa 0,0 l/m 0 min 0 min 19 W/m 12,9 km/h (3 Bft) 100,00 %
17.05.2023 20:58 13,2 C 12,2 C 8,9 C 61 % 1026,9 hPa 0,0 l/m 0 min 0 min 18 W/m 6,4 km/h (2 Bft) 100,00 %
17.05.2023 21:00 13,1 C 12,2 C 8,9 C 61 % 1026,9 hPa 0,0 l/m 0 min 0 min 16 W/m 6,4 km/h (2 Bft) 100,00 %
17.05.2023 21:02 13,1 C 12,2 C 8,9 C 61 % 1026,9 hPa 0,0 l/m 0 min 0 min 15 W/m 6,4 km/h (2 Bft) 97,87 %
17.05.2023 21:04 13,1 C 12,2 C 8,3 C 61 % 1026,9 hPa 0,0 l/m 0 min 0 min 14 W/m 3,2 km/h (1 Bft) 100,00 %
17.05.2023 21:06 13,0 C 12,2 C 8,3 C 62 % 1026,9 hPa 0,0 l/m 0 min 0 min 12 W/m 6,4 km/h (2 Bft) 97,14 %
17.05.2023 21:08 13,0 C 12,2 C 8,3 C 62 % 1027,0 hPa 0,0 l/m 0 min 0 min 11 W/m 3,2 km/h (1 Bft) 97,92 %
17.05.2023 21:10 12,9 C 12,2 C 8,3 C 62 % 1027,0 hPa 0,0 l/m 0 min 0 min 10 W/m 3,2 km/h (1 Bft) 93,62 %
17.05.2023 21:12 12,9 C 11,7 C 8,3 C 63 % 1027,0 hPa 0,0 l/m 0 min 0 min 8 W/m 3,2 km/h (1 Bft) 95,74 %
17.05.2023 21:14 12,8 C 11,7 C 8,3 C 63 % 1027,0 hPa 0,0 l/m 0 min 0 min 7 W/m 6,4 km/h (2 Bft) 95,74 %
17.05.2023 21:16 12,8 C 11,7 C 8,3 C 63 % 1027,0 hPa 0,0 l/m 0 min 0 min 6 W/m 3,2 km/h (1 Bft) 93,48 %
17.05.2023 21:18 12,7 C 11,7 C 8,3 C 63 % 1027,0 hPa 0,0 l/m 0 min 0 min 5 W/m 6,4 km/h (2 Bft) 91,49 %
17.05.2023 21:20 12,7 C 11,7 C 8,3 C 63 % 1027,0 hPa 0,0 l/m 0 min 0 min 2 W/m 6,4 km/h (2 Bft) 91,49 %
17.05.2023 21:22 12,7 C 11,7 C 8,3 C 63 % 1027,1 hPa 0,0 l/m 0 min 0 min 0 W/m 12,9 km/h (3 Bft) 95,74 %
17.05.2023 21:24 12,6 C 11,7 C 8,3 C 63 % 1027,1 hPa 0,0 l/m 0 min 0 min 0 W/m 6,4 km/h (2 Bft) 93,62 %
17.05.2023 21:26 12,6 C 11,7 C 7,8 C 63 % 1027,2 hPa 0,0 l/m 0 min 0 min 0 W/m 3,2 km/h (1 Bft) 93,62 %
17.05.2023 21:28 12,6 C 11,7 C 7,8 C 63 % 1027,1 hPa 0,0 l/m 0 min 0 min 0 W/m 3,2 km/h (1 Bft) 93,62 %
17.05.2023 21:30 12,5 C 11,1 C 7,8 C 64 % 1027,1 hPa 0,0 l/m 0 min 0 min 0 W/m 3,2 km/h (1 Bft) 91,30 %
17.05.2023 21:32 12,4 C 11,1 C 7,8 C 64 % 1027,2 hPa 0,0 l/m 0 min 0 min 0 W/m 3,2 km/h (1 Bft) 93,62 %
17.05.2023 21:34 12,4 C 11,1 C 7,8 C 64 % 1027,2 hPa 0,0 l/m 0 min 0 min 0 W/m 3,2 km/h (1 Bft) 93,62 %
17.05.2023 21:36 12,4 C 11,1 C 7,8 C 64 % 1027,2 hPa 0,0 l/m 0 min 0 min 0 W/m 3,2 km/h (1 Bft) 89,36 %
17.05.2023 21:38 12,3 C 11,1 C 7,8 C 65 % 1027,2 hPa 0,0 l/m 0 min 0 min 0 W/m 6,4 km/h (2 Bft) 95,74 %
17.05.2023 21:40 12,3 C 11,1 C 7,8 C 64 % 1027,2 hPa 0,0 l/m 0 min 0 min 0 W/m 6,4 km/h (2 Bft) 95,74 %
17.05.2023 21:42 12,2 C 11,1 C 7,8 C 64 % 1027,2 hPa 0,0 l/m 0 min 0 min 0 W/m 6,4 km/h (2 Bft) 93,48 %
17.05.2023 21:44 12,2 C 11,1 C 7,8 C 65 % 1027,2 hPa 0,0 l/m 0 min 0 min 0 W/m 6,4 km/h (2 Bft) 93,62 %
17.05.2023 21:46 12,1 C 10,6 C 7,2 C 65 % 1027,2 hPa 0,0 l/m 0 min 0 min 0 W/m 6,4 km/h (2 Bft) 95,74 %
17.05.2023 21:48 12,1 C 10,6 C 7,2 C 65 % 1027,3 hPa 0,0 l/m 0 min 0 min 0 W/m 6,4 km/h (2 Bft) 93,62 %
17.05.2023 21:50 12,1 C 10,6 C 7,2 C 65 % 1027,3 hPa 0,0 l/m 0 min 0 min 0 W/m 3,2 km/h (1 Bft) 95,74 %
17.05.2023 21:52 11,9 C 10,6 C 7,2 C 65 % 1027,3 hPa 0,0 l/m 0 min 0 min 0 W/m 6,4 km/h (2 Bft) 93,62 %
17.05.2023 21:54 11,9 C 10,6 C 7,2 C 65 % 1027,4 hPa 0,0 l/m 0 min 0 min 0 W/m 3,2 km/h (1 Bft) 91,30 %
17.05.2023 21:56 11,9 C 10,6 C 7,2 C 66 % 1027,3 hPa 0,0 l/m 0 min 0 min 0 W/m 3,2 km/h (1 Bft) 97,87 %
17.05.2023 21:58 11,9 C 10,6 C 7,2 C 66 % 1027,3 hPa 0,0 l/m 0 min 0 min 0 W/m 3,2 km/h (1 Bft) 97,87 %
17.05.2023 22:00 11,8 C 10,6 C 7,2 C 66 % 1027,3 hPa 0,0 l/m 0 min 0 min 0 W/m 3,2 km/h (1 Bft) 93,62 %
17.05.2023 22:02 11,8 C 10,6 C 7,2 C 66 % 1027,3 hPa 0,0 l/m 0 min 0 min 0 W/m 3,2 km/h (1 Bft) 97,87 %
17.05.2023 22:04 11,7 C 10,6 C 7,2 C 66 % 1027,4 hPa 0,0 l/m 0 min 0 min 0 W/m 3,2 km/h (1 Bft) 97,92 %
17.05.2023 22:06 11,7 C 10,6 C 7,2 C 66 % 1027,4 hPa 0,0 l/m 0 min 0 min 0 W/m 3,2 km/h (1 Bft) 94,83 %
17.05.2023 22:08 11,7 C 10,6 C 7,2 C 67 % 1027,3 hPa 0,0 l/m 0 min 0 min 0 W/m 3,2 km/h (1 Bft) 100,00 %
17.05.2023 22:10 11,6 C 10,6 C 7,2 C 67 % 1027,4 hPa 0,0 l/m 0 min 0 min 0 W/m 6,4 km/h (2 Bft) 97,87 %
17.05.2023 22:12 11,6 C 10,6 C 7,2 C 67 % 1027,4 hPa 0,0 l/m 0 min 0 min 0 W/m 6,4 km/h (2 Bft) 97,87 %
17.05.2023 22:14 11,6 C 10,6 C 7,2 C 67 % 1027,4 hPa 0,0 l/m 0 min 0 min 0 W/m 3,2 km/h (1 Bft) 100,00 %
17.05.2023 22:16 11,5 C 10,6 C 7,2 C 67 % 1027,3 hPa 0,0 l/m 0 min 0 min 0 W/m 3,2 km/h (1 Bft) 100,00 %
17.05.2023 22:18 11,4 C 10,0 C 7,2 C 67 % 1027,4 hPa 0,0 l/m 0 min 0 min 0 W/m 6,4 km/h (2 Bft) 97,87 %
17.05.2023 22:20 11,4 C 10,0 C 7,2 C 67 % 1027,3 hPa 0,0 l/m 0 min 0 min 0 W/m 3,2 km/h (1 Bft) 100,00 %
17.05.2023 22:22 11,4 C 10,0 C 6,7 C 68 % 1027,3 hPa 0,0 l/m 0 min 0 min 0 W/m 3,2 km/h (1 Bft) 100,00 %
17.05.2023 22:24 11,3 C 10,0 C 6,7 C 68 % 1027,4 hPa 0,0 l/m 0 min 0 min 0 W/m 6,4 km/h (2 Bft) 95,74 %
17.05.2023 22:26 11,3 C 10,0 C 6,7 C 68 % 1027,4 hPa 0,0 l/m 0 min 0 min 0 W/m 9,7 km/h (2 Bft) 95,74 %
17.05.2023 22:28 11,3 C 10,0 C 6,7 C 68 % 1027,4 hPa 0,0 l/m 0 min 0 min 0 W/m 3,2 km/h (1 Bft) 100,00 %
17.05.2023 22:30 11,2 C 10,0 C 6,7 C 68 % 1027,4 hPa 0,0 l/m 0 min 0 min 0 W/m 3,2 km/h (1 Bft) 97,87 %
17.05.2023 22:32 11,2 C 10,0 C 6,7 C 68 % 1027,4 hPa 0,0 l/m 0 min 0 min 0 W/m 3,2 km/h (1 Bft) 100,00 %
17.05.2023 22:34 11,2 C 10,0 C 6,7 C 69 % 1027,4 hPa 0,0 l/m 0 min 0 min 0 W/m 6,4 km/h (2 Bft) 100,00 %
17.05.2023 22:36 11,1 C 10,0 C 6,7 C 69 % 1027,4 hPa 0,0 l/m 0 min 0 min 0 W/m 6,4 km/h (2 Bft) 97,87 %
17.05.2023 22:38 11,1 C 10,0 C 6,7 C 69 % 1027,5 hPa 0,0 l/m 0 min 0 min 0 W/m 3,2 km/h (1 Bft) 100,00 %
17.05.2023 22:40 11,1 C 10,0 C 6,7 C 69 % 1027,4 hPa 0,0 l/m 0 min 0 min 0 W/m 3,2 km/h (1 Bft) 96,23 %
17.05.2023 22:42 11,1 C 10,0 C 6,7 C 69 % 1027,4 hPa 0,0 l/m 0 min 0 min 0 W/m 3,2 km/h (1 Bft) 97,87 %
17.05.2023 22:44 11,0 C 10,0 C 6,7 C 69 % 1027,5 hPa 0,0 l/m 0 min 0 min 0 W/m 3,2 km/h (1 Bft) 100,00 %
17.05.2023 22:46 11,0 C 10,0 C 6,7 C 69 % 1027,5 hPa 0,0 l/m 0 min 0 min 0 W/m 12,9 km/h (3 Bft) 100,00 %
17.05.2023 22:48 10,9 C 10,0 C 6,7 C 69 % 1027,5 hPa 0,0 l/m 0 min 0 min 0 W/m 6,4 km/h (2 Bft) 97,22 %
17.05.2023 22:50 10,9 C 10,0 C 6,7 C 69 % 1027,5 hPa 0,0 l/m 0 min 0 min 0 W/m 3,2 km/h (1 Bft) 93,62 %
17.05.2023 22:52 10,9 C 10,0 C 6,7 C 70 % 1027,5 hPa 0,0 l/m 0 min 0 min 0 W/m 3,2 km/h (1 Bft) 97,87 %
17.05.2023 22:54 10,9 C 10,0 C 6,7 C 70 % 1027,4 hPa 0,0 l/m 0 min 0 min 0 W/m 3,2 km/h (1 Bft) 97,87 %
17.05.2023 22:56 10,9 C 9,4 C 6,7 C 70 % 1027,5 hPa 0,0 l/m 0 min 0 min 0 W/m 3,2 km/h (1 Bft) 97,87 %
17.05.2023 22:58 10,9 C 9,4 C 6,1 C 71 % 1027,5 hPa 0,0 l/m 0 min 0 min 0 W/m 3,2 km/h (1 Bft) 97,87 %
17.05.2023 23:00 10,8 C 9,4 C 6,1 C 71 % 1027,5 hPa 0,0 l/m 0 min 0 min 0 W/m 0,0 km/h (0 Bft) 97,83 %
17.05.2023 23:02 10,8 C 9,4 C 6,1 C 71 % 1027,5 hPa 0,0 l/m 0 min 0 min 0 W/m 0,0 km/h (0 Bft) 97,87 %
17.05.2023 23:04 10,8 C 9,4 C 6,1 C 71 % 1027,5 hPa 0,0 l/m 0 min 0 min 0 W/m 0,0 km/h (0 Bft) 97,87 %
17.05.2023 23:06 10,7 C 9,4 C 6,1 C 71 % 1027,5 hPa 0,0 l/m 0 min 0 min 0 W/m 0,0 km/h (0 Bft) 98,31 %
17.05.2023 23:08 10,7 C 8,9 C 6,1 C 71 % 1027,5 hPa 0,0 l/m 0 min 0 min 0 W/m 0,0 km/h (0 Bft) 97,14 %
17.05.2023 23:10 10,7 C 8,9 C 6,1 C 72 % 1027,5 hPa 0,0 l/m 0 min 0 min 0 W/m 3,2 km/h (1 Bft) 97,96 %
17.05.2023 23:12 10,6 C 8,9 C 6,1 C 72 % 1027,5 hPa 0,0 l/m 0 min 0 min 0 W/m 0,0 km/h (0 Bft) 95,65 %
17.05.2023 23:14 10,6 C 8,9 C 6,1 C 72 % 1027,5 hPa 0,0 l/m 0 min 0 min 0 W/m 3,2 km/h (1 Bft) 97,87 %
17.05.2023 23:16 10,6 C 8,9 C 6,1 C 72 % 1027,5 hPa 0,0 l/m 0 min 0 min 0 W/m 3,2 km/h (1 Bft) 100,00 %
17.05.2023 23:18 10,5 C 8,9 C 5,6 C 73 % 1027,5 hPa 0,0 l/m 0 min 0 min 0 W/m 3,2 km/h (1 Bft) 100,00 %
17.05.2023 23:20 10,4 C 8,9 C 5,6 C 73 % 1027,5 hPa 0,0 l/m 0 min 0 min 0 W/m 3,2 km/h (1 Bft) 100,00 %
17.05.2023 23:22 10,4 C 8,9 C 6,1 C 72 % 1027,5 hPa 0,0 l/m 0 min 0 min 0 W/m 6,4 km/h (2 Bft) 97,87 %
17.05.2023 23:24 10,3 C 8,9 C 6,1 C 72 % 1027,4 hPa 0,0 l/m 0 min 0 min 0 W/m 6,4 km/h (2 Bft) 95,74 %
17.05.2023 23:26 10,3 C 8,9 C 6,1 C 73 % 1027,5 hPa 0,0 l/m 0 min 0 min 0 W/m 3,2 km/h (1 Bft) 97,83 %
17.05.2023 23:28 10,2 C 8,9 C 6,1 C 73 % 1027,5 hPa 0,0 l/m 0 min 0 min 0 W/m 3,2 km/h (1 Bft) 97,87 %
17.05.2023 23:30 10,2 C 8,9 C 5,6 C 73 % 1027,5 hPa 0,0 l/m 0 min 0 min 0 W/m 3,2 km/h (1 Bft) 97,87 %
17.05.2023 23:32 10,1 C 8,9 C 5,6 C 73 % 1027,5 hPa 0,0 l/m 0 min 0 min 0 W/m 3,2 km/h (1 Bft) 97,87 %
17.05.2023 23:34 10,1 C 8,9 C 5,6 C 73 % 1027,5 hPa 0,0 l/m 0 min 0 min 0 W/m 6,4 km/h (2 Bft) 95,74 %
17.05.2023 23:36 10,0 C 8,9 C 5,6 C 73 % 1027,5 hPa 0,0 l/m 0 min 0 min 0 W/m 3,2 km/h (1 Bft) 97,87 %
17.05.2023 23:38 9,9 C 8,9 C 5,6 C 73 % 1027,5 hPa 0,0 l/m 0 min 0 min 0 W/m 6,4 km/h (2 Bft) 97,83 %
17.05.2023 23:40 9,9 C 8,9 C 5,6 C 73 % 1027,5 hPa 0,0 l/m 0 min 0 min 0 W/m 3,2 km/h (1 Bft) 97,87 %
17.05.2023 23:42 9,9 C 8,9 C 5,6 C 73 % 1027,5 hPa 0,0 l/m 0 min 0 min 0 W/m 0,0 km/h (0 Bft) 95,74 %
17.05.2023 23:44 9,9 C 8,9 C 5,6 C 74 % 1027,5 hPa 0,0 l/m 0 min 0 min 0 W/m 0,0 km/h (0 Bft) 97,87 %
17.05.2023 23:46 9,8 C 8,9 C 5,6 C 74 % 1027,6 hPa 0,0 l/m 0 min 0 min 0 W/m 3,2 km/h (1 Bft) 97,87 %
17.05.2023 23:48 9,8 C 8,9 C 5,6 C 74 % 1027,5 hPa 0,0 l/m 0 min 0 min 0 W/m 0,0 km/h (0 Bft) 97,87 %
17.05.2023 23:50 9,8 C 8,3 C 5,6 C 74 % 1027,5 hPa 0,0 l/m 0 min 0 min 0 W/m 0,0 km/h (0 Bft) 97,87 %
17.05.2023 23:52 9,8 C 8,3 C 5,6 C 74 % 1027,5 hPa 0,0 l/m 0 min 0 min 0 W/m 0,0 km/h (0 Bft) 95,65 %
17.05.2023 23:54 9,8 C 8,3 C 5,6 C 74 % 1027,6 hPa 0,0 l/m 0 min 0 min 0 W/m 0,0 km/h (0 Bft) 95,74 %
17.05.2023 23:56 9,7 C 8,3 C 5,6 C 75 % 1027,6 hPa 0,0 l/m 0 min 0 min 0 W/m 0,0 km/h (0 Bft) 97,87 %
17.05.2023 23:58 9,7 C 8,3 C 5,0 C 75 % 1027,6 hPa 0,0 l/m 0 min 0 min 0 W/m 3,2 km/h (1 Bft) 97,87 %
_ Min-Zeit 05:18 03:16 04:16 14:30 00:00 - - - - 00:26 06:20
Minimum _ 6,9 C 6,1 C 2,8 C 51 % 1023,9 hPa - - - - 0,0 km/h (0 Bft) 33,33 %
_ Max-Zeit 14:56 14:22 13:40 06:56 11:36 00:00 12:12 00:00 13:42 12:36 00:00
Maximum _ 17,1 C 24,4 C 18,3 C 96 % 1027,7 hPa 0,0 l/m 4 min 0 min 1151 W/m 35,4 km/h
W-NW (5 Bft)
100,00 %
Durchschnitt _ 12,2 C 13,6 C 8,4 C 71 % 1026,3 hPa #0,0 l/m #9:34 h #0 min. 450 W/m 9,8 km/h (2 Bft) 97,23 %
© 2023 W. Hausmann